<?xml version="1.0" encoding="UTF-8" standalone="no" ?>
<gpx xmlns="http://www.topografix.com/GPX/1/1" xmlns:xsi="http://www.w3.org/2001/XMLSchema-instance" xsi:schemaLocation="http://www.topografix.com/GPX/1/1 http://www.topografix.com/GPX/1/1/gpx.xsd" version="1.1" creator="VisuGPX - https://www.visugpx.com">
  <metadata>
    <name>Stevenson - Cassagnas - Serre de la Can</name>
    <desc><![CDATA[Etape 7 - ASVEL Ski Montagne le 25 Mai 2012]]></desc>
  </metadata>
  <trk>
    <name><![CDATA[ACTIVE LOG080752]]></name>
    <trkseg>
      <trkpt lat="44.27081" lon="3.73006">
        <ele>702.674</ele>
        <time>2012-05-25T08:07:56Z</time>
      </trkpt>
      <trkpt lat="44.27066" lon="3.73012">
        <ele>703.588</ele>
        <time>2012-05-25T08:08:09Z</time>
      </trkpt>
      <trkpt lat="44.27062" lon="3.73017">
        <ele>703.499</ele>
        <time>2012-05-25T08:08:13Z</time>
      </trkpt>
      <trkpt lat="44.27058" lon="3.73023">
        <ele>703.877</ele>
        <time>2012-05-25T08:08:17Z</time>
      </trkpt>
      <trkpt lat="44.27056" lon="3.73029">
        <ele>703.543</ele>
        <time>2012-05-25T08:08:20Z</time>
      </trkpt>
      <trkpt lat="44.27046" lon="3.7305">
        <ele>704.009</ele>
        <time>2012-05-25T08:08:33Z</time>
      </trkpt>
      <trkpt lat="44.27041" lon="3.73056">
        <ele>705.056</ele>
        <time>2012-05-25T08:08:38Z</time>
      </trkpt>
      <trkpt lat="44.2703" lon="3.73066">
        <ele>705.1</ele>
        <time>2012-05-25T08:08:47Z</time>
      </trkpt>
      <trkpt lat="44.27022" lon="3.73071">
        <ele>705.234</ele>
        <time>2012-05-25T08:08:53Z</time>
      </trkpt>
      <trkpt lat="44.27017" lon="3.73074">
        <ele>705.261</ele>
        <time>2012-05-25T08:08:59Z</time>
      </trkpt>
      <trkpt lat="44.27007" lon="3.73083">
        <ele>706.289</ele>
        <time>2012-05-25T08:09:08Z</time>
      </trkpt>
      <trkpt lat="44.27002" lon="3.73084">
        <ele>705.993</ele>
        <time>2012-05-25T08:09:43Z</time>
      </trkpt>
      <trkpt lat="44.2698" lon="3.73096">
        <ele>706.612</ele>
        <time>2012-05-25T08:09:57Z</time>
      </trkpt>
      <trkpt lat="44.2697" lon="3.7309">
        <ele>707.453</ele>
        <time>2012-05-25T08:10:05Z</time>
      </trkpt>
      <trkpt lat="44.26964" lon="3.7309">
        <ele>707.669</ele>
        <time>2012-05-25T08:10:08Z</time>
      </trkpt>
      <trkpt lat="44.26955" lon="3.73091">
        <ele>708.032</ele>
        <time>2012-05-25T08:10:12Z</time>
      </trkpt>
      <trkpt lat="44.26947" lon="3.7309">
        <ele>707.921</ele>
        <time>2012-05-25T08:10:17Z</time>
      </trkpt>
      <trkpt lat="44.26933" lon="3.73085">
        <ele>708.968</ele>
        <time>2012-05-25T08:10:29Z</time>
      </trkpt>
      <trkpt lat="44.26927" lon="3.73084">
        <ele>709.153</ele>
        <time>2012-05-25T08:10:33Z</time>
      </trkpt>
      <trkpt lat="44.26919" lon="3.7308">
        <ele>709.342</ele>
        <time>2012-05-25T08:10:41Z</time>
      </trkpt>
      <trkpt lat="44.26913" lon="3.73075">
        <ele>708.532</ele>
        <time>2012-05-25T08:10:47Z</time>
      </trkpt>
      <trkpt lat="44.26911" lon="3.73075">
        <ele>707.74</ele>
        <time>2012-05-25T08:10:49Z</time>
      </trkpt>
      <trkpt lat="44.26895" lon="3.73074">
        <ele>706.274</ele>
        <time>2012-05-25T08:11:05Z</time>
      </trkpt>
      <trkpt lat="44.26885" lon="3.73084">
        <ele>705.956</ele>
        <time>2012-05-25T08:11:18Z</time>
      </trkpt>
      <trkpt lat="44.2688" lon="3.73101">
        <ele>706.053</ele>
        <time>2012-05-25T08:11:27Z</time>
      </trkpt>
      <trkpt lat="44.26883" lon="3.73106">
        <ele>706.343</ele>
        <time>2012-05-25T08:11:31Z</time>
      </trkpt>
      <trkpt lat="44.26895" lon="3.73116">
        <ele>707.238</ele>
        <time>2012-05-25T08:11:44Z</time>
      </trkpt>
      <trkpt lat="44.26911" lon="3.73127">
        <ele>708.117</ele>
        <time>2012-05-25T08:11:59Z</time>
      </trkpt>
      <trkpt lat="44.26935" lon="3.73146">
        <ele>708.606</ele>
        <time>2012-05-25T08:12:22Z</time>
      </trkpt>
      <trkpt lat="44.26951" lon="3.73158">
        <ele>709.281</ele>
        <time>2012-05-25T08:12:36Z</time>
      </trkpt>
      <trkpt lat="44.26967" lon="3.73165">
        <ele>709.864</ele>
        <time>2012-05-25T08:12:51Z</time>
      </trkpt>
      <trkpt lat="44.26984" lon="3.73182">
        <ele>710.872</ele>
        <time>2012-05-25T08:13:08Z</time>
      </trkpt>
      <trkpt lat="44.26987" lon="3.73185">
        <ele>710.563</ele>
        <time>2012-05-25T08:13:11Z</time>
      </trkpt>
      <trkpt lat="44.26992" lon="3.73191">
        <ele>711.006</ele>
        <time>2012-05-25T08:13:16Z</time>
      </trkpt>
      <trkpt lat="44.26997" lon="3.732">
        <ele>711.352</ele>
        <time>2012-05-25T08:13:23Z</time>
      </trkpt>
      <trkpt lat="44.26999" lon="3.73204">
        <ele>711.55</ele>
        <time>2012-05-25T08:13:26Z</time>
      </trkpt>
      <trkpt lat="44.27001" lon="3.7321">
        <ele>711.933</ele>
        <time>2012-05-25T08:13:29Z</time>
      </trkpt>
      <trkpt lat="44.27005" lon="3.7323">
        <ele>712.024</ele>
        <time>2012-05-25T08:13:41Z</time>
      </trkpt>
      <trkpt lat="44.27005" lon="3.73236">
        <ele>712.629</ele>
        <time>2012-05-25T08:13:45Z</time>
      </trkpt>
      <trkpt lat="44.27005" lon="3.73243">
        <ele>712.658</ele>
        <time>2012-05-25T08:13:49Z</time>
      </trkpt>
      <trkpt lat="44.27007" lon="3.7325">
        <ele>712.647</ele>
        <time>2012-05-25T08:13:54Z</time>
      </trkpt>
      <trkpt lat="44.27005" lon="3.73264">
        <ele>713.409</ele>
        <time>2012-05-25T08:14:03Z</time>
      </trkpt>
      <trkpt lat="44.27003" lon="3.73269">
        <ele>713.272</ele>
        <time>2012-05-25T08:14:07Z</time>
      </trkpt>
      <trkpt lat="44.27004" lon="3.73281">
        <ele>713.583</ele>
        <time>2012-05-25T08:14:15Z</time>
      </trkpt>
      <trkpt lat="44.27003" lon="3.73306">
        <ele>714.129</ele>
        <time>2012-05-25T08:14:30Z</time>
      </trkpt>
      <trkpt lat="44.27003" lon="3.73312">
        <ele>714.357</ele>
        <time>2012-05-25T08:14:34Z</time>
      </trkpt>
      <trkpt lat="44.26999" lon="3.73319">
        <ele>714.327</ele>
        <time>2012-05-25T08:14:40Z</time>
      </trkpt>
      <trkpt lat="44.26999" lon="3.73323">
        <ele>714.007</ele>
        <time>2012-05-25T08:14:42Z</time>
      </trkpt>
      <trkpt lat="44.26992" lon="3.73339">
        <ele>714.443</ele>
        <time>2012-05-25T08:14:54Z</time>
      </trkpt>
      <trkpt lat="44.26987" lon="3.73347">
        <ele>714.798</ele>
        <time>2012-05-25T08:15:00Z</time>
      </trkpt>
      <trkpt lat="44.26986" lon="3.73353">
        <ele>714.893</ele>
        <time>2012-05-25T08:15:04Z</time>
      </trkpt>
      <trkpt lat="44.26982" lon="3.73365">
        <ele>715.161</ele>
        <time>2012-05-25T08:15:11Z</time>
      </trkpt>
      <trkpt lat="44.26976" lon="3.73378">
        <ele>715.533</ele>
        <time>2012-05-25T08:15:22Z</time>
      </trkpt>
      <trkpt lat="44.26974" lon="3.73384">
        <ele>715.605</ele>
        <time>2012-05-25T08:15:25Z</time>
      </trkpt>
      <trkpt lat="44.26971" lon="3.73388">
        <ele>716.063</ele>
        <time>2012-05-25T08:15:29Z</time>
      </trkpt>
      <trkpt lat="44.26969" lon="3.73391">
        <ele>715.902</ele>
        <time>2012-05-25T08:15:31Z</time>
      </trkpt>
      <trkpt lat="44.26961" lon="3.73393">
        <ele>716.027</ele>
        <time>2012-05-25T08:15:35Z</time>
      </trkpt>
      <trkpt lat="44.26958" lon="3.73399">
        <ele>716.01</ele>
        <time>2012-05-25T08:15:39Z</time>
      </trkpt>
      <trkpt lat="44.26949" lon="3.73411">
        <ele>717.221</ele>
        <time>2012-05-25T08:15:49Z</time>
      </trkpt>
      <trkpt lat="44.26944" lon="3.73414">
        <ele>717.514</ele>
        <time>2012-05-25T08:15:54Z</time>
      </trkpt>
      <trkpt lat="44.26933" lon="3.73425">
        <ele>718.129</ele>
        <time>2012-05-25T08:16:07Z</time>
      </trkpt>
      <trkpt lat="44.26925" lon="3.73433">
        <ele>719.295</ele>
        <time>2012-05-25T08:16:18Z</time>
      </trkpt>
      <trkpt lat="44.26913" lon="3.73442">
        <ele>720.241</ele>
        <time>2012-05-25T08:16:30Z</time>
      </trkpt>
      <trkpt lat="44.26904" lon="3.73449">
        <ele>721.11</ele>
        <time>2012-05-25T08:16:39Z</time>
      </trkpt>
      <trkpt lat="44.26891" lon="3.73464">
        <ele>722.444</ele>
        <time>2012-05-25T08:16:54Z</time>
      </trkpt>
      <trkpt lat="44.26878" lon="3.73476">
        <ele>723.969</ele>
        <time>2012-05-25T08:17:09Z</time>
      </trkpt>
      <trkpt lat="44.26873" lon="3.73484">
        <ele>724.703</ele>
        <time>2012-05-25T08:17:20Z</time>
      </trkpt>
      <trkpt lat="44.26872" lon="3.73485">
        <ele>724.457</ele>
        <time>2012-05-25T08:17:22Z</time>
      </trkpt>
      <trkpt lat="44.26872" lon="3.73489">
        <ele>725.262</ele>
        <time>2012-05-25T08:17:27Z</time>
      </trkpt>
      <trkpt lat="44.26863" lon="3.73498">
        <ele>726.39</ele>
        <time>2012-05-25T08:17:36Z</time>
      </trkpt>
      <trkpt lat="44.26853" lon="3.73507">
        <ele>727.5</ele>
        <time>2012-05-25T08:17:46Z</time>
      </trkpt>
      <trkpt lat="44.26848" lon="3.73516">
        <ele>727.994</ele>
        <time>2012-05-25T08:17:54Z</time>
      </trkpt>
      <trkpt lat="44.26845" lon="3.73523">
        <ele>728.476</ele>
        <time>2012-05-25T08:18:00Z</time>
      </trkpt>
      <trkpt lat="44.26842" lon="3.7353">
        <ele>729.438</ele>
        <time>2012-05-25T08:18:06Z</time>
      </trkpt>
      <trkpt lat="44.26838" lon="3.73537">
        <ele>729.716</ele>
        <time>2012-05-25T08:18:12Z</time>
      </trkpt>
      <trkpt lat="44.26829" lon="3.73546">
        <ele>730.488</ele>
        <time>2012-05-25T08:18:23Z</time>
      </trkpt>
      <trkpt lat="44.26823" lon="3.73557">
        <ele>730.905</ele>
        <time>2012-05-25T08:18:34Z</time>
      </trkpt>
      <trkpt lat="44.26821" lon="3.73574">
        <ele>732.465</ele>
        <time>2012-05-25T08:18:49Z</time>
      </trkpt>
      <trkpt lat="44.26825" lon="3.73595">
        <ele>733.727</ele>
        <time>2012-05-25T08:19:02Z</time>
      </trkpt>
      <trkpt lat="44.26823" lon="3.73609">
        <ele>735</ele>
        <time>2012-05-25T08:19:11Z</time>
      </trkpt>
      <trkpt lat="44.26814" lon="3.73613">
        <ele>735.929</ele>
        <time>2012-05-25T08:19:21Z</time>
      </trkpt>
      <trkpt lat="44.26804" lon="3.73609">
        <ele>736.295</ele>
        <time>2012-05-25T08:19:30Z</time>
      </trkpt>
      <trkpt lat="44.26792" lon="3.73603">
        <ele>737.723</ele>
        <time>2012-05-25T08:19:43Z</time>
      </trkpt>
      <trkpt lat="44.26785" lon="3.73599">
        <ele>738.469</ele>
        <time>2012-05-25T08:19:51Z</time>
      </trkpt>
      <trkpt lat="44.26784" lon="3.73597">
        <ele>739.033</ele>
        <time>2012-05-25T08:19:53Z</time>
      </trkpt>
      <trkpt lat="44.26779" lon="3.73595">
        <ele>739.575</ele>
        <time>2012-05-25T08:19:58Z</time>
      </trkpt>
      <trkpt lat="44.26777" lon="3.73592">
        <ele>739.493</ele>
        <time>2012-05-25T08:20:01Z</time>
      </trkpt>
      <trkpt lat="44.26766" lon="3.73587">
        <ele>741.531</ele>
        <time>2012-05-25T08:20:15Z</time>
      </trkpt>
      <trkpt lat="44.26765" lon="3.73584">
        <ele>741.466</ele>
        <time>2012-05-25T08:20:17Z</time>
      </trkpt>
      <trkpt lat="44.26758" lon="3.73574">
        <ele>742.533</ele>
        <time>2012-05-25T08:20:27Z</time>
      </trkpt>
      <trkpt lat="44.26748" lon="3.73572">
        <ele>743.591</ele>
        <time>2012-05-25T08:20:35Z</time>
      </trkpt>
      <trkpt lat="44.26746" lon="3.73572">
        <ele>743.57</ele>
        <time>2012-05-25T08:20:37Z</time>
      </trkpt>
      <trkpt lat="44.26742" lon="3.73568">
        <ele>744.126</ele>
        <time>2012-05-25T08:20:42Z</time>
      </trkpt>
      <trkpt lat="44.2674" lon="3.73566">
        <ele>744.394</ele>
        <time>2012-05-25T08:20:46Z</time>
      </trkpt>
      <trkpt lat="44.26734" lon="3.73562">
        <ele>745.127</ele>
        <time>2012-05-25T08:20:52Z</time>
      </trkpt>
      <trkpt lat="44.26734" lon="3.7356">
        <ele>745.322</ele>
        <time>2012-05-25T08:20:54Z</time>
      </trkpt>
      <trkpt lat="44.26728" lon="3.73556">
        <ele>745.706</ele>
        <time>2012-05-25T08:21:00Z</time>
      </trkpt>
      <trkpt lat="44.26713" lon="3.73559">
        <ele>747.105</ele>
        <time>2012-05-25T08:21:13Z</time>
      </trkpt>
      <trkpt lat="44.26697" lon="3.73562">
        <ele>747.704</ele>
        <time>2012-05-25T08:21:24Z</time>
      </trkpt>
      <trkpt lat="44.26685" lon="3.73561">
        <ele>748.718</ele>
        <time>2012-05-25T08:21:36Z</time>
      </trkpt>
      <trkpt lat="44.26671" lon="3.73557">
        <ele>749.747</ele>
        <time>2012-05-25T08:21:48Z</time>
      </trkpt>
      <trkpt lat="44.26659" lon="3.73551">
        <ele>751.193</ele>
        <time>2012-05-25T08:22:03Z</time>
      </trkpt>
      <trkpt lat="44.26652" lon="3.73549">
        <ele>751.934</ele>
        <time>2012-05-25T08:22:09Z</time>
      </trkpt>
      <trkpt lat="44.26651" lon="3.73547">
        <ele>751.903</ele>
        <time>2012-05-25T08:22:12Z</time>
      </trkpt>
      <trkpt lat="44.26642" lon="3.73547">
        <ele>752.791</ele>
        <time>2012-05-25T08:22:23Z</time>
      </trkpt>
      <trkpt lat="44.26641" lon="3.73545">
        <ele>752.784</ele>
        <time>2012-05-25T08:22:25Z</time>
      </trkpt>
      <trkpt lat="44.26633" lon="3.73541">
        <ele>753.617</ele>
        <time>2012-05-25T08:22:34Z</time>
      </trkpt>
      <trkpt lat="44.26615" lon="3.73547">
        <ele>755.693</ele>
        <time>2012-05-25T08:22:50Z</time>
      </trkpt>
      <trkpt lat="44.26602" lon="3.73556">
        <ele>755.942</ele>
        <time>2012-05-25T08:23:02Z</time>
      </trkpt>
      <trkpt lat="44.26598" lon="3.73554">
        <ele>756.527</ele>
        <time>2012-05-25T08:23:08Z</time>
      </trkpt>
      <trkpt lat="44.26586" lon="3.73563">
        <ele>757.474</ele>
        <time>2012-05-25T08:23:24Z</time>
      </trkpt>
      <trkpt lat="44.26568" lon="3.73577">
        <ele>759.099</ele>
        <time>2012-05-25T08:23:46Z</time>
      </trkpt>
      <trkpt lat="44.2655" lon="3.73577">
        <ele>760.655</ele>
        <time>2012-05-25T08:24:05Z</time>
      </trkpt>
      <trkpt lat="44.26544" lon="3.7358">
        <ele>761.172</ele>
        <time>2012-05-25T08:24:10Z</time>
      </trkpt>
      <trkpt lat="44.2653" lon="3.73585">
        <ele>762.08</ele>
        <time>2012-05-25T08:24:20Z</time>
      </trkpt>
      <trkpt lat="44.26529" lon="3.73575">
        <ele>762.668</ele>
        <time>2012-05-25T08:24:25Z</time>
      </trkpt>
      <trkpt lat="44.26527" lon="3.73569">
        <ele>763.586</ele>
        <time>2012-05-25T08:24:30Z</time>
      </trkpt>
      <trkpt lat="44.26526" lon="3.7356">
        <ele>764.543</ele>
        <time>2012-05-25T08:24:37Z</time>
      </trkpt>
      <trkpt lat="44.26536" lon="3.73549">
        <ele>766.271</ele>
        <time>2012-05-25T08:24:52Z</time>
      </trkpt>
      <trkpt lat="44.26541" lon="3.73544">
        <ele>766.988</ele>
        <time>2012-05-25T08:24:57Z</time>
      </trkpt>
      <trkpt lat="44.26543" lon="3.73543">
        <ele>767.031</ele>
        <time>2012-05-25T08:25:00Z</time>
      </trkpt>
      <trkpt lat="44.26552" lon="3.73535">
        <ele>767.757</ele>
        <time>2012-05-25T08:25:13Z</time>
      </trkpt>
      <trkpt lat="44.26559" lon="3.73531">
        <ele>768.748</ele>
        <time>2012-05-25T08:25:23Z</time>
      </trkpt>
      <trkpt lat="44.26566" lon="3.73523">
        <ele>769.831</ele>
        <time>2012-05-25T08:25:34Z</time>
      </trkpt>
      <trkpt lat="44.26576" lon="3.73509">
        <ele>771.357</ele>
        <time>2012-05-25T08:25:53Z</time>
      </trkpt>
      <trkpt lat="44.26587" lon="3.735">
        <ele>772.402</ele>
        <time>2012-05-25T08:26:07Z</time>
      </trkpt>
      <trkpt lat="44.26603" lon="3.73471">
        <ele>775.314</ele>
        <time>2012-05-25T08:26:34Z</time>
      </trkpt>
      <trkpt lat="44.26618" lon="3.73459">
        <ele>776.875</ele>
        <time>2012-05-25T08:26:49Z</time>
      </trkpt>
      <trkpt lat="44.26621" lon="3.73457">
        <ele>777.619</ele>
        <time>2012-05-25T08:26:54Z</time>
      </trkpt>
      <trkpt lat="44.26632" lon="3.73464">
        <ele>778.48</ele>
        <time>2012-05-25T08:27:05Z</time>
      </trkpt>
      <trkpt lat="44.26645" lon="3.73462">
        <ele>779.722</ele>
        <time>2012-05-25T08:27:19Z</time>
      </trkpt>
      <trkpt lat="44.2665" lon="3.73464">
        <ele>780.023</ele>
        <time>2012-05-25T08:27:25Z</time>
      </trkpt>
      <trkpt lat="44.26654" lon="3.73464">
        <ele>780.615</ele>
        <time>2012-05-25T08:27:29Z</time>
      </trkpt>
      <trkpt lat="44.26657" lon="3.73463">
        <ele>781.048</ele>
        <time>2012-05-25T08:27:32Z</time>
      </trkpt>
      <trkpt lat="44.26658" lon="3.73466">
        <ele>781.455</ele>
        <time>2012-05-25T08:27:36Z</time>
      </trkpt>
      <trkpt lat="44.26669" lon="3.73466">
        <ele>782.766</ele>
        <time>2012-05-25T08:27:48Z</time>
      </trkpt>
      <trkpt lat="44.26686" lon="3.7347">
        <ele>783.838</ele>
        <time>2012-05-25T08:28:03Z</time>
      </trkpt>
      <trkpt lat="44.26699" lon="3.73463">
        <ele>784.982</ele>
        <time>2012-05-25T08:28:13Z</time>
      </trkpt>
      <trkpt lat="44.26703" lon="3.73463">
        <ele>784.918</ele>
        <time>2012-05-25T08:28:17Z</time>
      </trkpt>
      <trkpt lat="44.26708" lon="3.73464">
        <ele>785.8</ele>
        <time>2012-05-25T08:28:23Z</time>
      </trkpt>
      <trkpt lat="44.26718" lon="3.73464">
        <ele>786.858</ele>
        <time>2012-05-25T08:28:34Z</time>
      </trkpt>
      <trkpt lat="44.26722" lon="3.73463">
        <ele>787.268</ele>
        <time>2012-05-25T08:28:38Z</time>
      </trkpt>
      <trkpt lat="44.26727" lon="3.73463">
        <ele>787.922</ele>
        <time>2012-05-25T08:28:43Z</time>
      </trkpt>
      <trkpt lat="44.26731" lon="3.73463">
        <ele>787.88</ele>
        <time>2012-05-25T08:28:46Z</time>
      </trkpt>
      <trkpt lat="44.26735" lon="3.73465">
        <ele>788.139</ele>
        <time>2012-05-25T08:28:50Z</time>
      </trkpt>
      <trkpt lat="44.26737" lon="3.73465">
        <ele>788.718</ele>
        <time>2012-05-25T08:28:52Z</time>
      </trkpt>
      <trkpt lat="44.2674" lon="3.73464">
        <ele>788.498</ele>
        <time>2012-05-25T08:28:54Z</time>
      </trkpt>
      <trkpt lat="44.26742" lon="3.73465">
        <ele>789.028</ele>
        <time>2012-05-25T08:28:56Z</time>
      </trkpt>
      <trkpt lat="44.26752" lon="3.73466">
        <ele>790.054</ele>
        <time>2012-05-25T08:29:09Z</time>
      </trkpt>
      <trkpt lat="44.26762" lon="3.73456">
        <ele>791.629</ele>
        <time>2012-05-25T08:29:20Z</time>
      </trkpt>
      <trkpt lat="44.26771" lon="3.73442">
        <ele>792.368</ele>
        <time>2012-05-25T08:29:30Z</time>
      </trkpt>
      <trkpt lat="44.26779" lon="3.73428">
        <ele>793.628</ele>
        <time>2012-05-25T08:29:42Z</time>
      </trkpt>
      <trkpt lat="44.26783" lon="3.73413">
        <ele>794.895</ele>
        <time>2012-05-25T08:29:57Z</time>
      </trkpt>
      <trkpt lat="44.26785" lon="3.73406">
        <ele>795.438</ele>
        <time>2012-05-25T08:30:02Z</time>
      </trkpt>
      <trkpt lat="44.26786" lon="3.73394">
        <ele>796.633</ele>
        <time>2012-05-25T08:30:15Z</time>
      </trkpt>
      <trkpt lat="44.26792" lon="3.73379">
        <ele>797.62</ele>
        <time>2012-05-25T08:30:27Z</time>
      </trkpt>
      <trkpt lat="44.26799" lon="3.73356">
        <ele>799.268</ele>
        <time>2012-05-25T08:30:43Z</time>
      </trkpt>
      <trkpt lat="44.26807" lon="3.73336">
        <ele>800.727</ele>
        <time>2012-05-25T08:31:00Z</time>
      </trkpt>
      <trkpt lat="44.26809" lon="3.73332">
        <ele>801.309</ele>
        <time>2012-05-25T08:31:04Z</time>
      </trkpt>
      <trkpt lat="44.26818" lon="3.73319">
        <ele>802.724</ele>
        <time>2012-05-25T08:31:16Z</time>
      </trkpt>
      <trkpt lat="44.26825" lon="3.73302">
        <ele>803.228</ele>
        <time>2012-05-25T08:31:30Z</time>
      </trkpt>
      <trkpt lat="44.26829" lon="3.73288">
        <ele>804.365</ele>
        <time>2012-05-25T08:31:43Z</time>
      </trkpt>
      <trkpt lat="44.26826" lon="3.73279">
        <ele>805.15</ele>
        <time>2012-05-25T08:31:49Z</time>
      </trkpt>
      <trkpt lat="44.26821" lon="3.73273">
        <ele>805.684</ele>
        <time>2012-05-25T08:31:56Z</time>
      </trkpt>
      <trkpt lat="44.2682" lon="3.73271">
        <ele>805.715</ele>
        <time>2012-05-25T08:31:58Z</time>
      </trkpt>
      <trkpt lat="44.26816" lon="3.73265">
        <ele>806.611</ele>
        <time>2012-05-25T08:32:04Z</time>
      </trkpt>
      <trkpt lat="44.26815" lon="3.73262">
        <ele>806.651</ele>
        <time>2012-05-25T08:32:06Z</time>
      </trkpt>
      <trkpt lat="44.26805" lon="3.73251">
        <ele>807.76</ele>
        <time>2012-05-25T08:32:19Z</time>
      </trkpt>
      <trkpt lat="44.26801" lon="3.73248">
        <ele>808.054</ele>
        <time>2012-05-25T08:32:24Z</time>
      </trkpt>
      <trkpt lat="44.2678" lon="3.73256">
        <ele>809.75</ele>
        <time>2012-05-25T08:32:43Z</time>
      </trkpt>
      <trkpt lat="44.26774" lon="3.73259">
        <ele>810.185</ele>
        <time>2012-05-25T08:32:52Z</time>
      </trkpt>
      <trkpt lat="44.2676" lon="3.7326">
        <ele>811.578</ele>
        <time>2012-05-25T08:33:06Z</time>
      </trkpt>
      <trkpt lat="44.26756" lon="3.73258">
        <ele>812.605</ele>
        <time>2012-05-25T08:33:12Z</time>
      </trkpt>
      <trkpt lat="44.26742" lon="3.73254">
        <ele>814.368</ele>
        <time>2012-05-25T08:33:28Z</time>
      </trkpt>
      <trkpt lat="44.26733" lon="3.73255">
        <ele>815.322</ele>
        <time>2012-05-25T08:33:37Z</time>
      </trkpt>
      <trkpt lat="44.26723" lon="3.73257">
        <ele>816.323</ele>
        <time>2012-05-25T08:33:48Z</time>
      </trkpt>
      <trkpt lat="44.2671" lon="3.73256">
        <ele>818.182</ele>
        <time>2012-05-25T08:34:01Z</time>
      </trkpt>
      <trkpt lat="44.26701" lon="3.73264">
        <ele>818.953</ele>
        <time>2012-05-25T08:34:08Z</time>
      </trkpt>
      <trkpt lat="44.26691" lon="3.73264">
        <ele>820.362</ele>
        <time>2012-05-25T08:34:19Z</time>
      </trkpt>
      <trkpt lat="44.26686" lon="3.73265">
        <ele>821.119</ele>
        <time>2012-05-25T08:34:25Z</time>
      </trkpt>
      <trkpt lat="44.26675" lon="3.73276">
        <ele>822.124</ele>
        <time>2012-05-25T08:34:38Z</time>
      </trkpt>
      <trkpt lat="44.26657" lon="3.73277">
        <ele>823.266</ele>
        <time>2012-05-25T08:34:57Z</time>
      </trkpt>
      <trkpt lat="44.26635" lon="3.73272">
        <ele>824.593</ele>
        <time>2012-05-25T08:35:18Z</time>
      </trkpt>
      <trkpt lat="44.2663" lon="3.73271">
        <ele>824.63</ele>
        <time>2012-05-25T08:35:22Z</time>
      </trkpt>
      <trkpt lat="44.26611" lon="3.73269">
        <ele>825.416</ele>
        <time>2012-05-25T08:35:40Z</time>
      </trkpt>
      <trkpt lat="44.26597" lon="3.73268">
        <ele>826.581</ele>
        <time>2012-05-25T08:35:57Z</time>
      </trkpt>
      <trkpt lat="44.26589" lon="3.73267">
        <ele>827.047</ele>
        <time>2012-05-25T08:36:10Z</time>
      </trkpt>
      <trkpt lat="44.26581" lon="3.73264">
        <ele>827.775</ele>
        <time>2012-05-25T08:36:17Z</time>
      </trkpt>
      <trkpt lat="44.26576" lon="3.73265">
        <ele>827.665</ele>
        <time>2012-05-25T08:36:21Z</time>
      </trkpt>
      <trkpt lat="44.26557" lon="3.73265">
        <ele>828.416</ele>
        <time>2012-05-25T08:36:39Z</time>
      </trkpt>
      <trkpt lat="44.26553" lon="3.73263">
        <ele>828.491</ele>
        <time>2012-05-25T08:36:43Z</time>
      </trkpt>
      <trkpt lat="44.26534" lon="3.7326">
        <ele>828.986</ele>
        <time>2012-05-25T08:37:02Z</time>
      </trkpt>
      <trkpt lat="44.26516" lon="3.7326">
        <ele>829.998</ele>
        <time>2012-05-25T08:37:19Z</time>
      </trkpt>
      <trkpt lat="44.26495" lon="3.73257">
        <ele>831.58</ele>
        <time>2012-05-25T08:37:39Z</time>
      </trkpt>
      <trkpt lat="44.26486" lon="3.73255">
        <ele>832.031</ele>
        <time>2012-05-25T08:37:52Z</time>
      </trkpt>
      <trkpt lat="44.26479" lon="3.73255">
        <ele>832.874</ele>
        <time>2012-05-25T08:37:58Z</time>
      </trkpt>
      <trkpt lat="44.26476" lon="3.73254">
        <ele>833.107</ele>
        <time>2012-05-25T08:38:01Z</time>
      </trkpt>
      <trkpt lat="44.2647" lon="3.73252">
        <ele>833.658</ele>
        <time>2012-05-25T08:38:08Z</time>
      </trkpt>
      <trkpt lat="44.26467" lon="3.73252">
        <ele>833.85</ele>
        <time>2012-05-25T08:38:11Z</time>
      </trkpt>
      <trkpt lat="44.26462" lon="3.7325">
        <ele>834.479</ele>
        <time>2012-05-25T08:38:17Z</time>
      </trkpt>
      <trkpt lat="44.26458" lon="3.7325">
        <ele>834.976</ele>
        <time>2012-05-25T08:38:20Z</time>
      </trkpt>
      <trkpt lat="44.26454" lon="3.73246">
        <ele>835.148</ele>
        <time>2012-05-25T08:38:26Z</time>
      </trkpt>
      <trkpt lat="44.2645" lon="3.73246">
        <ele>835.88</ele>
        <time>2012-05-25T08:38:31Z</time>
      </trkpt>
      <trkpt lat="44.26447" lon="3.73246">
        <ele>836.214</ele>
        <time>2012-05-25T08:38:34Z</time>
      </trkpt>
      <trkpt lat="44.2644" lon="3.73238">
        <ele>837.136</ele>
        <time>2012-05-25T08:38:43Z</time>
      </trkpt>
      <trkpt lat="44.26436" lon="3.73236">
        <ele>837.597</ele>
        <time>2012-05-25T08:38:46Z</time>
      </trkpt>
      <trkpt lat="44.26431" lon="3.73221">
        <ele>838.759</ele>
        <time>2012-05-25T08:39:00Z</time>
      </trkpt>
      <trkpt lat="44.26429" lon="3.73211">
        <ele>839.714</ele>
        <time>2012-05-25T08:39:08Z</time>
      </trkpt>
      <trkpt lat="44.26425" lon="3.73195">
        <ele>840.289</ele>
        <time>2012-05-25T08:39:22Z</time>
      </trkpt>
      <trkpt lat="44.26425" lon="3.73171">
        <ele>842.069</ele>
        <time>2012-05-25T08:39:42Z</time>
      </trkpt>
      <trkpt lat="44.26421" lon="3.73157">
        <ele>842.913</ele>
        <time>2012-05-25T08:39:50Z</time>
      </trkpt>
      <trkpt lat="44.2642" lon="3.73152">
        <ele>842.952</ele>
        <time>2012-05-25T08:39:53Z</time>
      </trkpt>
      <trkpt lat="44.26411" lon="3.73133">
        <ele>843.666</ele>
        <time>2012-05-25T08:40:07Z</time>
      </trkpt>
      <trkpt lat="44.26409" lon="3.7313">
        <ele>843.98</ele>
        <time>2012-05-25T08:40:10Z</time>
      </trkpt>
      <trkpt lat="44.26406" lon="3.73119">
        <ele>844.676</ele>
        <time>2012-05-25T08:40:19Z</time>
      </trkpt>
      <trkpt lat="44.26402" lon="3.73115">
        <ele>845.075</ele>
        <time>2012-05-25T08:40:25Z</time>
      </trkpt>
      <trkpt lat="44.264" lon="3.73112">
        <ele>845.032</ele>
        <time>2012-05-25T08:40:27Z</time>
      </trkpt>
      <trkpt lat="44.26392" lon="3.73103">
        <ele>845.311</ele>
        <time>2012-05-25T08:40:41Z</time>
      </trkpt>
      <trkpt lat="44.26385" lon="3.73092">
        <ele>845.387</ele>
        <time>2012-05-25T08:40:50Z</time>
      </trkpt>
      <trkpt lat="44.26384" lon="3.73089">
        <ele>845.1</ele>
        <time>2012-05-25T08:40:52Z</time>
      </trkpt>
      <trkpt lat="44.26381" lon="3.73084">
        <ele>844.972</ele>
        <time>2012-05-25T08:40:57Z</time>
      </trkpt>
      <trkpt lat="44.26378" lon="3.7308">
        <ele>844.753</ele>
        <time>2012-05-25T08:41:00Z</time>
      </trkpt>
      <trkpt lat="44.26373" lon="3.73077">
        <ele>844.581</ele>
        <time>2012-05-25T08:41:05Z</time>
      </trkpt>
      <trkpt lat="44.26371" lon="3.73073">
        <ele>845.379</ele>
        <time>2012-05-25T08:41:09Z</time>
      </trkpt>
      <trkpt lat="44.26363" lon="3.73068">
        <ele>844.726</ele>
        <time>2012-05-25T08:41:17Z</time>
      </trkpt>
      <trkpt lat="44.26357" lon="3.73061">
        <ele>844.475</ele>
        <time>2012-05-25T08:41:22Z</time>
      </trkpt>
      <trkpt lat="44.26349" lon="3.73043">
        <ele>845.376</ele>
        <time>2012-05-25T08:41:35Z</time>
      </trkpt>
      <trkpt lat="44.26346" lon="3.73033">
        <ele>845.56</ele>
        <time>2012-05-25T08:41:42Z</time>
      </trkpt>
      <trkpt lat="44.26344" lon="3.73029">
        <ele>845.169</ele>
        <time>2012-05-25T08:41:45Z</time>
      </trkpt>
      <trkpt lat="44.26338" lon="3.73016">
        <ele>844.995</ele>
        <time>2012-05-25T08:41:54Z</time>
      </trkpt>
      <trkpt lat="44.26327" lon="3.73002">
        <ele>845.267</ele>
        <time>2012-05-25T08:42:08Z</time>
      </trkpt>
      <trkpt lat="44.2632" lon="3.72984">
        <ele>844.583</ele>
        <time>2012-05-25T08:42:23Z</time>
      </trkpt>
      <trkpt lat="44.26317" lon="3.72978">
        <ele>844.836</ele>
        <time>2012-05-25T08:42:28Z</time>
      </trkpt>
      <trkpt lat="44.26317" lon="3.72974">
        <ele>844.92</ele>
        <time>2012-05-25T08:42:31Z</time>
      </trkpt>
      <trkpt lat="44.26319" lon="3.72962">
        <ele>845.181</ele>
        <time>2012-05-25T08:42:40Z</time>
      </trkpt>
      <trkpt lat="44.26321" lon="3.72951">
        <ele>845.315</ele>
        <time>2012-05-25T08:42:47Z</time>
      </trkpt>
      <trkpt lat="44.26324" lon="3.72943">
        <ele>844.743</ele>
        <time>2012-05-25T08:42:54Z</time>
      </trkpt>
      <trkpt lat="44.26326" lon="3.72929">
        <ele>844.911</ele>
        <time>2012-05-25T08:43:04Z</time>
      </trkpt>
      <trkpt lat="44.26326" lon="3.72923">
        <ele>845.043</ele>
        <time>2012-05-25T08:43:08Z</time>
      </trkpt>
      <trkpt lat="44.26324" lon="3.72907">
        <ele>844.551</ele>
        <time>2012-05-25T08:43:18Z</time>
      </trkpt>
      <trkpt lat="44.26321" lon="3.72889">
        <ele>845.089</ele>
        <time>2012-05-25T08:43:29Z</time>
      </trkpt>
      <trkpt lat="44.2632" lon="3.72881">
        <ele>845.206</ele>
        <time>2012-05-25T08:43:36Z</time>
      </trkpt>
      <trkpt lat="44.26316" lon="3.72866">
        <ele>845.686</ele>
        <time>2012-05-25T08:43:47Z</time>
      </trkpt>
      <trkpt lat="44.26315" lon="3.72858">
        <ele>846.44</ele>
        <time>2012-05-25T08:43:52Z</time>
      </trkpt>
      <trkpt lat="44.2631" lon="3.72833">
        <ele>847.512</ele>
        <time>2012-05-25T08:44:09Z</time>
      </trkpt>
      <trkpt lat="44.26311" lon="3.7283">
        <ele>847.71</ele>
        <time>2012-05-25T08:44:11Z</time>
      </trkpt>
      <trkpt lat="44.26304" lon="3.72804">
        <ele>848.34</ele>
        <time>2012-05-25T08:44:28Z</time>
      </trkpt>
      <trkpt lat="44.26303" lon="3.72798">
        <ele>848.582</ele>
        <time>2012-05-25T08:44:32Z</time>
      </trkpt>
      <trkpt lat="44.263" lon="3.72788">
        <ele>848.646</ele>
        <time>2012-05-25T08:44:39Z</time>
      </trkpt>
      <trkpt lat="44.26298" lon="3.72782">
        <ele>848.939</ele>
        <time>2012-05-25T08:44:43Z</time>
      </trkpt>
      <trkpt lat="44.26294" lon="3.72772">
        <ele>849.012</ele>
        <time>2012-05-25T08:44:50Z</time>
      </trkpt>
      <trkpt lat="44.26293" lon="3.72767">
        <ele>849.171</ele>
        <time>2012-05-25T08:44:53Z</time>
      </trkpt>
      <trkpt lat="44.2629" lon="3.72758">
        <ele>849.286</ele>
        <time>2012-05-25T08:45:00Z</time>
      </trkpt>
      <trkpt lat="44.26289" lon="3.72742">
        <ele>849.84</ele>
        <time>2012-05-25T08:45:10Z</time>
      </trkpt>
      <trkpt lat="44.26283" lon="3.72734">
        <ele>849.736</ele>
        <time>2012-05-25T08:45:16Z</time>
      </trkpt>
      <trkpt lat="44.26284" lon="3.72728">
        <ele>850</ele>
        <time>2012-05-25T08:45:19Z</time>
      </trkpt>
      <trkpt lat="44.2628" lon="3.72716">
        <ele>850.705</ele>
        <time>2012-05-25T08:45:28Z</time>
      </trkpt>
      <trkpt lat="44.26278" lon="3.72713">
        <ele>851.187</ele>
        <time>2012-05-25T08:45:32Z</time>
      </trkpt>
      <trkpt lat="44.26273" lon="3.72707">
        <ele>851.37</ele>
        <time>2012-05-25T08:45:38Z</time>
      </trkpt>
      <trkpt lat="44.26263" lon="3.72698">
        <ele>851.976</ele>
        <time>2012-05-25T08:45:50Z</time>
      </trkpt>
      <trkpt lat="44.26259" lon="3.72697">
        <ele>852.629</ele>
        <time>2012-05-25T08:45:54Z</time>
      </trkpt>
      <trkpt lat="44.26254" lon="3.72694">
        <ele>852.583</ele>
        <time>2012-05-25T08:45:58Z</time>
      </trkpt>
      <trkpt lat="44.26252" lon="3.72692">
        <ele>852.477</ele>
        <time>2012-05-25T08:46:01Z</time>
      </trkpt>
      <trkpt lat="44.26246" lon="3.72687">
        <ele>852.773</ele>
        <time>2012-05-25T08:46:07Z</time>
      </trkpt>
      <trkpt lat="44.26237" lon="3.72686">
        <ele>852.471</ele>
        <time>2012-05-25T08:46:15Z</time>
      </trkpt>
      <trkpt lat="44.26224" lon="3.72682">
        <ele>852.687</ele>
        <time>2012-05-25T08:46:27Z</time>
      </trkpt>
      <trkpt lat="44.26208" lon="3.72681">
        <ele>853.547</ele>
        <time>2012-05-25T08:46:42Z</time>
      </trkpt>
      <trkpt lat="44.26199" lon="3.72684">
        <ele>853.258</ele>
        <time>2012-05-25T08:46:53Z</time>
      </trkpt>
      <trkpt lat="44.26196" lon="3.72686">
        <ele>853.735</ele>
        <time>2012-05-25T08:46:56Z</time>
      </trkpt>
      <trkpt lat="44.26186" lon="3.72692">
        <ele>853.632</ele>
        <time>2012-05-25T08:47:06Z</time>
      </trkpt>
      <trkpt lat="44.26173" lon="3.72701">
        <ele>853.67</ele>
        <time>2012-05-25T08:47:16Z</time>
      </trkpt>
      <trkpt lat="44.26172" lon="3.72704">
        <ele>853.873</ele>
        <time>2012-05-25T08:47:18Z</time>
      </trkpt>
      <trkpt lat="44.26168" lon="3.72709">
        <ele>853.529</ele>
        <time>2012-05-25T08:47:23Z</time>
      </trkpt>
      <trkpt lat="44.26164" lon="3.72713">
        <ele>853.415</ele>
        <time>2012-05-25T08:47:28Z</time>
      </trkpt>
      <trkpt lat="44.26161" lon="3.72717">
        <ele>853.381</ele>
        <time>2012-05-25T08:47:31Z</time>
      </trkpt>
      <trkpt lat="44.26153" lon="3.72724">
        <ele>853.613</ele>
        <time>2012-05-25T08:47:38Z</time>
      </trkpt>
      <trkpt lat="44.2615" lon="3.72729">
        <ele>853.896</ele>
        <time>2012-05-25T08:47:42Z</time>
      </trkpt>
      <trkpt lat="44.26147" lon="3.72733">
        <ele>854.346</ele>
        <time>2012-05-25T08:47:46Z</time>
      </trkpt>
      <trkpt lat="44.26144" lon="3.72737">
        <ele>854.744</ele>
        <time>2012-05-25T08:47:50Z</time>
      </trkpt>
      <trkpt lat="44.26142" lon="3.72738">
        <ele>854.83</ele>
        <time>2012-05-25T08:47:52Z</time>
      </trkpt>
      <trkpt lat="44.2614" lon="3.72741">
        <ele>854.949</ele>
        <time>2012-05-25T08:47:55Z</time>
      </trkpt>
      <trkpt lat="44.26138" lon="3.72744">
        <ele>855.638</ele>
        <time>2012-05-25T08:47:59Z</time>
      </trkpt>
      <trkpt lat="44.26133" lon="3.72747">
        <ele>855.778</ele>
        <time>2012-05-25T08:48:04Z</time>
      </trkpt>
      <trkpt lat="44.26131" lon="3.72749">
        <ele>856.238</ele>
        <time>2012-05-25T08:48:07Z</time>
      </trkpt>
      <trkpt lat="44.2613" lon="3.72751">
        <ele>856.652</ele>
        <time>2012-05-25T08:48:09Z</time>
      </trkpt>
      <trkpt lat="44.26124" lon="3.72759">
        <ele>857.594</ele>
        <time>2012-05-25T08:48:19Z</time>
      </trkpt>
      <trkpt lat="44.26116" lon="3.72764">
        <ele>858.519</ele>
        <time>2012-05-25T08:48:28Z</time>
      </trkpt>
      <trkpt lat="44.26108" lon="3.72766">
        <ele>859.598</ele>
        <time>2012-05-25T08:48:37Z</time>
      </trkpt>
      <trkpt lat="44.26106" lon="3.72768">
        <ele>859.706</ele>
        <time>2012-05-25T08:48:40Z</time>
      </trkpt>
      <trkpt lat="44.26104" lon="3.72769">
        <ele>859.958</ele>
        <time>2012-05-25T08:48:42Z</time>
      </trkpt>
      <trkpt lat="44.26097" lon="3.7277">
        <ele>860.281</ele>
        <time>2012-05-25T08:48:49Z</time>
      </trkpt>
      <trkpt lat="44.26095" lon="3.72769">
        <ele>860.453</ele>
        <time>2012-05-25T08:48:51Z</time>
      </trkpt>
      <trkpt lat="44.26092" lon="3.7277">
        <ele>860.474</ele>
        <time>2012-05-25T08:48:55Z</time>
      </trkpt>
      <trkpt lat="44.26078" lon="3.72779">
        <ele>860.677</ele>
        <time>2012-05-25T08:49:09Z</time>
      </trkpt>
      <trkpt lat="44.26073" lon="3.72781">
        <ele>860.828</ele>
        <time>2012-05-25T08:49:15Z</time>
      </trkpt>
      <trkpt lat="44.26065" lon="3.72785">
        <ele>861.171</ele>
        <time>2012-05-25T08:49:23Z</time>
      </trkpt>
      <trkpt lat="44.26045" lon="3.72785">
        <ele>861.685</ele>
        <time>2012-05-25T08:49:38Z</time>
      </trkpt>
      <trkpt lat="44.26042" lon="3.72785">
        <ele>861.597</ele>
        <time>2012-05-25T08:49:41Z</time>
      </trkpt>
      <trkpt lat="44.26034" lon="3.72784">
        <ele>861.974</ele>
        <time>2012-05-25T08:49:46Z</time>
      </trkpt>
      <trkpt lat="44.26025" lon="3.7278">
        <ele>862.537</ele>
        <time>2012-05-25T08:49:56Z</time>
      </trkpt>
      <trkpt lat="44.26024" lon="3.72778">
        <ele>862.125</ele>
        <time>2012-05-25T08:49:58Z</time>
      </trkpt>
      <trkpt lat="44.26008" lon="3.72765">
        <ele>862.823</ele>
        <time>2012-05-25T08:50:15Z</time>
      </trkpt>
      <trkpt lat="44.26004" lon="3.72765">
        <ele>862.996</ele>
        <time>2012-05-25T08:50:21Z</time>
      </trkpt>
      <trkpt lat="44.26002" lon="3.72761">
        <ele>862.906</ele>
        <time>2012-05-25T08:50:24Z</time>
      </trkpt>
      <trkpt lat="44.25994" lon="3.72759">
        <ele>863.736</ele>
        <time>2012-05-25T08:50:32Z</time>
      </trkpt>
      <trkpt lat="44.25991" lon="3.72753">
        <ele>863.945</ele>
        <time>2012-05-25T08:50:37Z</time>
      </trkpt>
      <trkpt lat="44.25977" lon="3.7275">
        <ele>863.802</ele>
        <time>2012-05-25T08:50:48Z</time>
      </trkpt>
      <trkpt lat="44.25965" lon="3.72751">
        <ele>864.334</ele>
        <time>2012-05-25T08:50:57Z</time>
      </trkpt>
      <trkpt lat="44.25959" lon="3.72746">
        <ele>864.638</ele>
        <time>2012-05-25T08:51:02Z</time>
      </trkpt>
      <trkpt lat="44.25941" lon="3.72745">
        <ele>864.646</ele>
        <time>2012-05-25T08:51:14Z</time>
      </trkpt>
      <trkpt lat="44.25935" lon="3.72744">
        <ele>864.763</ele>
        <time>2012-05-25T08:51:24Z</time>
      </trkpt>
      <trkpt lat="44.25929" lon="3.72741">
        <ele>864.707</ele>
        <time>2012-05-25T08:51:31Z</time>
      </trkpt>
      <trkpt lat="44.25926" lon="3.72738">
        <ele>864.916</ele>
        <time>2012-05-25T08:51:35Z</time>
      </trkpt>
      <trkpt lat="44.25924" lon="3.72736">
        <ele>864.792</ele>
        <time>2012-05-25T08:51:37Z</time>
      </trkpt>
      <trkpt lat="44.25925" lon="3.72714">
        <ele>865.357</ele>
        <time>2012-05-25T08:51:48Z</time>
      </trkpt>
      <trkpt lat="44.2592" lon="3.72706">
        <ele>865.68</ele>
        <time>2012-05-25T08:51:56Z</time>
      </trkpt>
      <trkpt lat="44.25901" lon="3.72693">
        <ele>866.777</ele>
        <time>2012-05-25T08:52:16Z</time>
      </trkpt>
      <trkpt lat="44.25895" lon="3.72685">
        <ele>867.134</ele>
        <time>2012-05-25T08:52:24Z</time>
      </trkpt>
      <trkpt lat="44.25894" lon="3.72681">
        <ele>867.141</ele>
        <time>2012-05-25T08:52:26Z</time>
      </trkpt>
      <trkpt lat="44.2589" lon="3.72676">
        <ele>867.931</ele>
        <time>2012-05-25T08:52:31Z</time>
      </trkpt>
      <trkpt lat="44.25889" lon="3.72667">
        <ele>868.424</ele>
        <time>2012-05-25T08:52:38Z</time>
      </trkpt>
      <trkpt lat="44.25883" lon="3.72654">
        <ele>869.445</ele>
        <time>2012-05-25T08:52:51Z</time>
      </trkpt>
      <trkpt lat="44.25881" lon="3.72642">
        <ele>870.516</ele>
        <time>2012-05-25T08:52:59Z</time>
      </trkpt>
      <trkpt lat="44.25878" lon="3.72631">
        <ele>871.718</ele>
        <time>2012-05-25T08:53:12Z</time>
      </trkpt>
      <trkpt lat="44.2588" lon="3.72619">
        <ele>873.083</ele>
        <time>2012-05-25T08:53:24Z</time>
      </trkpt>
      <trkpt lat="44.2588" lon="3.72605">
        <ele>874.751</ele>
        <time>2012-05-25T08:53:35Z</time>
      </trkpt>
      <trkpt lat="44.25878" lon="3.72588">
        <ele>876.389</ele>
        <time>2012-05-25T08:53:51Z</time>
      </trkpt>
      <trkpt lat="44.25875" lon="3.72579">
        <ele>876.973</ele>
        <time>2012-05-25T08:53:59Z</time>
      </trkpt>
      <trkpt lat="44.25861" lon="3.72571">
        <ele>878.102</ele>
        <time>2012-05-25T08:54:14Z</time>
      </trkpt>
      <trkpt lat="44.25859" lon="3.7257">
        <ele>878.125</ele>
        <time>2012-05-25T08:54:17Z</time>
      </trkpt>
      <trkpt lat="44.25851" lon="3.72564">
        <ele>878.82</ele>
        <time>2012-05-25T08:54:26Z</time>
      </trkpt>
      <trkpt lat="44.25844" lon="3.72559">
        <ele>879.392</ele>
        <time>2012-05-25T08:54:35Z</time>
      </trkpt>
      <trkpt lat="44.25843" lon="3.72557">
        <ele>879.345</ele>
        <time>2012-05-25T08:54:37Z</time>
      </trkpt>
      <trkpt lat="44.25841" lon="3.72557">
        <ele>880.022</ele>
        <time>2012-05-25T08:54:39Z</time>
      </trkpt>
      <trkpt lat="44.25834" lon="3.72543">
        <ele>880.698</ele>
        <time>2012-05-25T08:54:53Z</time>
      </trkpt>
      <trkpt lat="44.25822" lon="3.72539">
        <ele>881.534</ele>
        <time>2012-05-25T08:55:04Z</time>
      </trkpt>
      <trkpt lat="44.25811" lon="3.72534">
        <ele>882.86</ele>
        <time>2012-05-25T08:55:17Z</time>
      </trkpt>
      <trkpt lat="44.25798" lon="3.72525">
        <ele>882.964</ele>
        <time>2012-05-25T08:55:33Z</time>
      </trkpt>
      <trkpt lat="44.2579" lon="3.72515">
        <ele>884.003</ele>
        <time>2012-05-25T08:55:45Z</time>
      </trkpt>
      <trkpt lat="44.25782" lon="3.72506">
        <ele>885.351</ele>
        <time>2012-05-25T08:55:56Z</time>
      </trkpt>
      <trkpt lat="44.25774" lon="3.72504">
        <ele>886.918</ele>
        <time>2012-05-25T08:56:05Z</time>
      </trkpt>
      <trkpt lat="44.25765" lon="3.72495">
        <ele>888.07</ele>
        <time>2012-05-25T08:56:18Z</time>
      </trkpt>
      <trkpt lat="44.25764" lon="3.72494">
        <ele>888.123</ele>
        <time>2012-05-25T08:56:20Z</time>
      </trkpt>
      <trkpt lat="44.25761" lon="3.72485">
        <ele>888.889</ele>
        <time>2012-05-25T08:56:26Z</time>
      </trkpt>
      <trkpt lat="44.25757" lon="3.72481">
        <ele>889.64</ele>
        <time>2012-05-25T08:56:33Z</time>
      </trkpt>
      <trkpt lat="44.2575" lon="3.72475">
        <ele>890.853</ele>
        <time>2012-05-25T08:56:41Z</time>
      </trkpt>
      <trkpt lat="44.25746" lon="3.72469">
        <ele>891.257</ele>
        <time>2012-05-25T08:56:48Z</time>
      </trkpt>
      <trkpt lat="44.25739" lon="3.72466">
        <ele>891.626</ele>
        <time>2012-05-25T08:56:54Z</time>
      </trkpt>
      <trkpt lat="44.25734" lon="3.72462">
        <ele>892.011</ele>
        <time>2012-05-25T08:57:00Z</time>
      </trkpt>
      <trkpt lat="44.25731" lon="3.72456">
        <ele>892.234</ele>
        <time>2012-05-25T08:57:04Z</time>
      </trkpt>
      <trkpt lat="44.25721" lon="3.7245">
        <ele>893.009</ele>
        <time>2012-05-25T08:57:15Z</time>
      </trkpt>
      <trkpt lat="44.25709" lon="3.72447">
        <ele>894.022</ele>
        <time>2012-05-25T08:57:26Z</time>
      </trkpt>
      <trkpt lat="44.25693" lon="3.72451">
        <ele>894.693</ele>
        <time>2012-05-25T08:57:40Z</time>
      </trkpt>
      <trkpt lat="44.25681" lon="3.72451">
        <ele>895.036</ele>
        <time>2012-05-25T08:57:52Z</time>
      </trkpt>
      <trkpt lat="44.25673" lon="3.72452">
        <ele>895.019</ele>
        <time>2012-05-25T08:58:00Z</time>
      </trkpt>
      <trkpt lat="44.25654" lon="3.72446">
        <ele>896.178</ele>
        <time>2012-05-25T08:58:16Z</time>
      </trkpt>
      <trkpt lat="44.25633" lon="3.72441">
        <ele>897.255</ele>
        <time>2012-05-25T08:58:32Z</time>
      </trkpt>
      <trkpt lat="44.25626" lon="3.72438">
        <ele>897.659</ele>
        <time>2012-05-25T08:58:38Z</time>
      </trkpt>
      <trkpt lat="44.25614" lon="3.72433">
        <ele>899.392</ele>
        <time>2012-05-25T08:58:54Z</time>
      </trkpt>
      <trkpt lat="44.25608" lon="3.72433">
        <ele>901.117</ele>
        <time>2012-05-25T08:59:09Z</time>
      </trkpt>
      <trkpt lat="44.25598" lon="3.72427">
        <ele>902.594</ele>
        <time>2012-05-25T08:59:24Z</time>
      </trkpt>
      <trkpt lat="44.25595" lon="3.72424">
        <ele>903.065</ele>
        <time>2012-05-25T08:59:28Z</time>
      </trkpt>
      <trkpt lat="44.25584" lon="3.72418">
        <ele>904.099</ele>
        <time>2012-05-25T08:59:41Z</time>
      </trkpt>
      <trkpt lat="44.2558" lon="3.72416">
        <ele>905.032</ele>
        <time>2012-05-25T08:59:45Z</time>
      </trkpt>
      <trkpt lat="44.25566" lon="3.72412">
        <ele>906.021</ele>
        <time>2012-05-25T08:59:58Z</time>
      </trkpt>
      <trkpt lat="44.25558" lon="3.72412">
        <ele>906.907</ele>
        <time>2012-05-25T09:00:06Z</time>
      </trkpt>
      <trkpt lat="44.25544" lon="3.72406">
        <ele>907.954</ele>
        <time>2012-05-25T09:00:20Z</time>
      </trkpt>
      <trkpt lat="44.25535" lon="3.72398">
        <ele>909.482</ele>
        <time>2012-05-25T09:00:33Z</time>
      </trkpt>
      <trkpt lat="44.2552" lon="3.72393">
        <ele>911.631</ele>
        <time>2012-05-25T09:00:52Z</time>
      </trkpt>
      <trkpt lat="44.25518" lon="3.72393">
        <ele>911.601</ele>
        <time>2012-05-25T09:00:54Z</time>
      </trkpt>
      <trkpt lat="44.25504" lon="3.72387">
        <ele>912.555</ele>
        <time>2012-05-25T09:01:06Z</time>
      </trkpt>
      <trkpt lat="44.25492" lon="3.72387">
        <ele>913.195</ele>
        <time>2012-05-25T09:01:19Z</time>
      </trkpt>
      <trkpt lat="44.25486" lon="3.72386">
        <ele>913.387</ele>
        <time>2012-05-25T09:01:23Z</time>
      </trkpt>
      <trkpt lat="44.25477" lon="3.72388">
        <ele>914.689</ele>
        <time>2012-05-25T09:01:37Z</time>
      </trkpt>
      <trkpt lat="44.25474" lon="3.72388">
        <ele>914.778</ele>
        <time>2012-05-25T09:01:39Z</time>
      </trkpt>
      <trkpt lat="44.25462" lon="3.72397">
        <ele>916.657</ele>
        <time>2012-05-25T09:01:55Z</time>
      </trkpt>
      <trkpt lat="44.25452" lon="3.72401">
        <ele>916.992</ele>
        <time>2012-05-25T09:02:02Z</time>
      </trkpt>
      <trkpt lat="44.25451" lon="3.72403">
        <ele>917.358</ele>
        <time>2012-05-25T09:02:05Z</time>
      </trkpt>
      <trkpt lat="44.2545" lon="3.72409">
        <ele>917.691</ele>
        <time>2012-05-25T09:02:08Z</time>
      </trkpt>
      <trkpt lat="44.25448" lon="3.72417">
        <ele>918.204</ele>
        <time>2012-05-25T09:02:14Z</time>
      </trkpt>
      <trkpt lat="44.25441" lon="3.72421">
        <ele>918.363</ele>
        <time>2012-05-25T09:02:20Z</time>
      </trkpt>
      <trkpt lat="44.25428" lon="3.7242">
        <ele>918.832</ele>
        <time>2012-05-25T09:02:34Z</time>
      </trkpt>
      <trkpt lat="44.25424" lon="3.72421">
        <ele>918.985</ele>
        <time>2012-05-25T09:02:37Z</time>
      </trkpt>
      <trkpt lat="44.25403" lon="3.72412">
        <ele>920.255</ele>
        <time>2012-05-25T09:02:53Z</time>
      </trkpt>
      <trkpt lat="44.25384" lon="3.72411">
        <ele>920.608</ele>
        <time>2012-05-25T09:03:06Z</time>
      </trkpt>
      <trkpt lat="44.25374" lon="3.72417">
        <ele>920.915</ele>
        <time>2012-05-25T09:03:17Z</time>
      </trkpt>
      <trkpt lat="44.25361" lon="3.72421">
        <ele>921.622</ele>
        <time>2012-05-25T09:03:30Z</time>
      </trkpt>
      <trkpt lat="44.25348" lon="3.7242">
        <ele>921.768</ele>
        <time>2012-05-25T09:03:40Z</time>
      </trkpt>
      <trkpt lat="44.25339" lon="3.72424">
        <ele>922.652</ele>
        <time>2012-05-25T09:03:54Z</time>
      </trkpt>
      <trkpt lat="44.25334" lon="3.7242">
        <ele>923.018</ele>
        <time>2012-05-25T09:03:58Z</time>
      </trkpt>
      <trkpt lat="44.25331" lon="3.72414">
        <ele>923.386</ele>
        <time>2012-05-25T09:04:03Z</time>
      </trkpt>
      <trkpt lat="44.25325" lon="3.72406">
        <ele>924.044</ele>
        <time>2012-05-25T09:04:13Z</time>
      </trkpt>
      <trkpt lat="44.25318" lon="3.72391">
        <ele>925.495</ele>
        <time>2012-05-25T09:04:24Z</time>
      </trkpt>
      <trkpt lat="44.25315" lon="3.72382">
        <ele>926.314</ele>
        <time>2012-05-25T09:04:30Z</time>
      </trkpt>
      <trkpt lat="44.25307" lon="3.72372">
        <ele>927.068</ele>
        <time>2012-05-25T09:04:39Z</time>
      </trkpt>
      <trkpt lat="44.25303" lon="3.72371">
        <ele>927.294</ele>
        <time>2012-05-25T09:04:43Z</time>
      </trkpt>
      <trkpt lat="44.25298" lon="3.7237">
        <ele>927.611</ele>
        <time>2012-05-25T09:04:47Z</time>
      </trkpt>
      <trkpt lat="44.25295" lon="3.72367">
        <ele>928.526</ele>
        <time>2012-05-25T09:04:51Z</time>
      </trkpt>
      <trkpt lat="44.25279" lon="3.72363">
        <ele>929.679</ele>
        <time>2012-05-25T09:05:08Z</time>
      </trkpt>
      <trkpt lat="44.25271" lon="3.7237">
        <ele>930.514</ele>
        <time>2012-05-25T09:05:20Z</time>
      </trkpt>
      <trkpt lat="44.25269" lon="3.72373">
        <ele>931.328</ele>
        <time>2012-05-25T09:05:23Z</time>
      </trkpt>
      <trkpt lat="44.25265" lon="3.72378">
        <ele>931.347</ele>
        <time>2012-05-25T09:05:28Z</time>
      </trkpt>
      <trkpt lat="44.2526" lon="3.7239">
        <ele>931.626</ele>
        <time>2012-05-25T09:05:37Z</time>
      </trkpt>
      <trkpt lat="44.25256" lon="3.72394">
        <ele>931.934</ele>
        <time>2012-05-25T09:05:42Z</time>
      </trkpt>
      <trkpt lat="44.25253" lon="3.72396">
        <ele>932.114</ele>
        <time>2012-05-25T09:05:45Z</time>
      </trkpt>
      <trkpt lat="44.25249" lon="3.724">
        <ele>932.306</ele>
        <time>2012-05-25T09:05:50Z</time>
      </trkpt>
      <trkpt lat="44.25246" lon="3.72402">
        <ele>932.72</ele>
        <time>2012-05-25T09:05:53Z</time>
      </trkpt>
      <trkpt lat="44.25236" lon="3.72412">
        <ele>934.023</ele>
        <time>2012-05-25T09:06:07Z</time>
      </trkpt>
      <trkpt lat="44.2523" lon="3.72413">
        <ele>934.196</ele>
        <time>2012-05-25T09:06:13Z</time>
      </trkpt>
      <trkpt lat="44.25215" lon="3.72409">
        <ele>934.806</ele>
        <time>2012-05-25T09:06:24Z</time>
      </trkpt>
      <trkpt lat="44.25209" lon="3.72405">
        <ele>935.755</ele>
        <time>2012-05-25T09:06:28Z</time>
      </trkpt>
      <trkpt lat="44.25199" lon="3.72401">
        <ele>936.223</ele>
        <time>2012-05-25T09:06:38Z</time>
      </trkpt>
      <trkpt lat="44.25178" lon="3.72398">
        <ele>937.958</ele>
        <time>2012-05-25T09:06:57Z</time>
      </trkpt>
      <trkpt lat="44.25171" lon="3.72401">
        <ele>938.916</ele>
        <time>2012-05-25T09:07:06Z</time>
      </trkpt>
      <trkpt lat="44.25161" lon="3.72405">
        <ele>940.05</ele>
        <time>2012-05-25T09:07:19Z</time>
      </trkpt>
      <trkpt lat="44.25157" lon="3.72404">
        <ele>940.699</ele>
        <time>2012-05-25T09:07:23Z</time>
      </trkpt>
      <trkpt lat="44.25155" lon="3.72406">
        <ele>940.499</ele>
        <time>2012-05-25T09:07:25Z</time>
      </trkpt>
      <trkpt lat="44.2515" lon="3.72405">
        <ele>940.817</ele>
        <time>2012-05-25T09:07:31Z</time>
      </trkpt>
      <trkpt lat="44.25144" lon="3.72403">
        <ele>941.34</ele>
        <time>2012-05-25T09:07:36Z</time>
      </trkpt>
      <trkpt lat="44.25134" lon="3.72397">
        <ele>942.148</ele>
        <time>2012-05-25T09:07:48Z</time>
      </trkpt>
      <trkpt lat="44.25131" lon="3.72396">
        <ele>941.882</ele>
        <time>2012-05-25T09:07:51Z</time>
      </trkpt>
      <trkpt lat="44.25119" lon="3.72391">
        <ele>943.444</ele>
        <time>2012-05-25T09:08:03Z</time>
      </trkpt>
      <trkpt lat="44.25109" lon="3.72385">
        <ele>944.184</ele>
        <time>2012-05-25T09:08:14Z</time>
      </trkpt>
      <trkpt lat="44.2509" lon="3.72386">
        <ele>944.379</ele>
        <time>2012-05-25T09:08:28Z</time>
      </trkpt>
      <trkpt lat="44.25086" lon="3.72389">
        <ele>944.34</ele>
        <time>2012-05-25T09:08:33Z</time>
      </trkpt>
      <trkpt lat="44.25065" lon="3.72397">
        <ele>944.715</ele>
        <time>2012-05-25T09:08:52Z</time>
      </trkpt>
      <trkpt lat="44.25063" lon="3.72399">
        <ele>944.325</ele>
        <time>2012-05-25T09:08:55Z</time>
      </trkpt>
      <trkpt lat="44.25059" lon="3.72404">
        <ele>945.017</ele>
        <time>2012-05-25T09:09:00Z</time>
      </trkpt>
      <trkpt lat="44.2504" lon="3.7241">
        <ele>945.294</ele>
        <time>2012-05-25T09:09:13Z</time>
      </trkpt>
      <trkpt lat="44.25032" lon="3.72419">
        <ele>945.405</ele>
        <time>2012-05-25T09:09:22Z</time>
      </trkpt>
      <trkpt lat="44.25029" lon="3.72419">
        <ele>945.786</ele>
        <time>2012-05-25T09:09:25Z</time>
      </trkpt>
      <trkpt lat="44.25013" lon="3.72425">
        <ele>946.14</ele>
        <time>2012-05-25T09:09:41Z</time>
      </trkpt>
      <trkpt lat="44.24997" lon="3.72425">
        <ele>946.32</ele>
        <time>2012-05-25T09:09:53Z</time>
      </trkpt>
      <trkpt lat="44.24987" lon="3.72425">
        <ele>946.474</ele>
        <time>2012-05-25T09:10:02Z</time>
      </trkpt>
      <trkpt lat="44.24973" lon="3.72424">
        <ele>946.64</ele>
        <time>2012-05-25T09:10:16Z</time>
      </trkpt>
      <trkpt lat="44.24965" lon="3.72419">
        <ele>946.688</ele>
        <time>2012-05-25T09:10:21Z</time>
      </trkpt>
      <trkpt lat="44.24956" lon="3.72413">
        <ele>947.023</ele>
        <time>2012-05-25T09:10:29Z</time>
      </trkpt>
      <trkpt lat="44.2495" lon="3.7241">
        <ele>946.9</ele>
        <time>2012-05-25T09:10:35Z</time>
      </trkpt>
      <trkpt lat="44.24947" lon="3.72408">
        <ele>946.745</ele>
        <time>2012-05-25T09:10:37Z</time>
      </trkpt>
      <trkpt lat="44.24941" lon="3.72406">
        <ele>947.007</ele>
        <time>2012-05-25T09:10:43Z</time>
      </trkpt>
      <trkpt lat="44.24934" lon="3.72406">
        <ele>947.163</ele>
        <time>2012-05-25T09:10:50Z</time>
      </trkpt>
      <trkpt lat="44.24917" lon="3.72395">
        <ele>947.826</ele>
        <time>2012-05-25T09:11:08Z</time>
      </trkpt>
      <trkpt lat="44.24903" lon="3.72393">
        <ele>948.368</ele>
        <time>2012-05-25T09:11:19Z</time>
      </trkpt>
      <trkpt lat="44.24891" lon="3.72395">
        <ele>948.987</ele>
        <time>2012-05-25T09:11:30Z</time>
      </trkpt>
      <trkpt lat="44.24883" lon="3.7239">
        <ele>949.279</ele>
        <time>2012-05-25T09:11:36Z</time>
      </trkpt>
      <trkpt lat="44.24864" lon="3.72385">
        <ele>950.254</ele>
        <time>2012-05-25T09:11:52Z</time>
      </trkpt>
      <trkpt lat="44.24854" lon="3.72386">
        <ele>950.581</ele>
        <time>2012-05-25T09:12:02Z</time>
      </trkpt>
      <trkpt lat="44.24842" lon="3.72392">
        <ele>951.981</ele>
        <time>2012-05-25T09:12:17Z</time>
      </trkpt>
      <trkpt lat="44.24829" lon="3.72402">
        <ele>953.741</ele>
        <time>2012-05-25T09:12:33Z</time>
      </trkpt>
      <trkpt lat="44.24825" lon="3.72404">
        <ele>953.601</ele>
        <time>2012-05-25T09:12:36Z</time>
      </trkpt>
      <trkpt lat="44.24822" lon="3.72407">
        <ele>953.886</ele>
        <time>2012-05-25T09:12:40Z</time>
      </trkpt>
      <trkpt lat="44.2481" lon="3.7242">
        <ele>955.322</ele>
        <time>2012-05-25T09:12:54Z</time>
      </trkpt>
      <trkpt lat="44.24804" lon="3.72424">
        <ele>956.473</ele>
        <time>2012-05-25T09:13:01Z</time>
      </trkpt>
      <trkpt lat="44.24798" lon="3.72428">
        <ele>956.718</ele>
        <time>2012-05-25T09:13:08Z</time>
      </trkpt>
      <trkpt lat="44.24796" lon="3.72431">
        <ele>957.057</ele>
        <time>2012-05-25T09:13:11Z</time>
      </trkpt>
      <trkpt lat="44.24792" lon="3.72434">
        <ele>957.299</ele>
        <time>2012-05-25T09:13:15Z</time>
      </trkpt>
      <trkpt lat="44.2479" lon="3.72439">
        <ele>957.754</ele>
        <time>2012-05-25T09:13:19Z</time>
      </trkpt>
      <trkpt lat="44.24792" lon="3.72445">
        <ele>957.687</ele>
        <time>2012-05-25T09:13:21Z</time>
      </trkpt>
      <trkpt lat="44.24789" lon="3.72452">
        <ele>958.164</ele>
        <time>2012-05-25T09:13:27Z</time>
      </trkpt>
      <trkpt lat="44.2478" lon="3.72463">
        <ele>959.012</ele>
        <time>2012-05-25T09:13:39Z</time>
      </trkpt>
      <trkpt lat="44.24775" lon="3.72472">
        <ele>959.525</ele>
        <time>2012-05-25T09:13:48Z</time>
      </trkpt>
      <trkpt lat="44.24771" lon="3.7248">
        <ele>960.186</ele>
        <time>2012-05-25T09:13:54Z</time>
      </trkpt>
      <trkpt lat="44.24769" lon="3.72488">
        <ele>960.901</ele>
        <time>2012-05-25T09:14:00Z</time>
      </trkpt>
      <trkpt lat="44.24767" lon="3.72491">
        <ele>961.152</ele>
        <time>2012-05-25T09:14:03Z</time>
      </trkpt>
      <trkpt lat="44.24764" lon="3.72494">
        <ele>961.512</ele>
        <time>2012-05-25T09:14:07Z</time>
      </trkpt>
      <trkpt lat="44.24762" lon="3.72496">
        <ele>961.595</ele>
        <time>2012-05-25T09:14:10Z</time>
      </trkpt>
      <trkpt lat="44.24761" lon="3.72503">
        <ele>961.631</ele>
        <time>2012-05-25T09:14:14Z</time>
      </trkpt>
      <trkpt lat="44.24751" lon="3.72503">
        <ele>962.412</ele>
        <time>2012-05-25T09:14:22Z</time>
      </trkpt>
      <trkpt lat="44.2475" lon="3.72504">
        <ele>962.316</ele>
        <time>2012-05-25T09:14:24Z</time>
      </trkpt>
      <trkpt lat="44.24741" lon="3.72507">
        <ele>962.5</ele>
        <time>2012-05-25T09:14:30Z</time>
      </trkpt>
      <trkpt lat="44.24729" lon="3.72511">
        <ele>962.744</ele>
        <time>2012-05-25T09:14:42Z</time>
      </trkpt>
      <trkpt lat="44.24724" lon="3.72509">
        <ele>962.643</ele>
        <time>2012-05-25T09:14:45Z</time>
      </trkpt>
      <trkpt lat="44.24718" lon="3.72511">
        <ele>963.193</ele>
        <time>2012-05-25T09:14:50Z</time>
      </trkpt>
      <trkpt lat="44.247" lon="3.7251">
        <ele>962.55</ele>
        <time>2012-05-25T09:16:00Z</time>
      </trkpt>
      <trkpt lat="44.24688" lon="3.72517">
        <ele>962.736</ele>
        <time>2012-05-25T09:16:12Z</time>
      </trkpt>
      <trkpt lat="44.24669" lon="3.72522">
        <ele>962.24</ele>
        <time>2012-05-25T09:16:27Z</time>
      </trkpt>
      <trkpt lat="44.24655" lon="3.72531">
        <ele>961.604</ele>
        <time>2012-05-25T09:16:40Z</time>
      </trkpt>
      <trkpt lat="44.24648" lon="3.72532">
        <ele>961.992</ele>
        <time>2012-05-25T09:16:45Z</time>
      </trkpt>
      <trkpt lat="44.24636" lon="3.72529">
        <ele>961.722</ele>
        <time>2012-05-25T09:16:51Z</time>
      </trkpt>
      <trkpt lat="44.24619" lon="3.72541">
        <ele>961.711</ele>
        <time>2012-05-25T09:17:05Z</time>
      </trkpt>
      <trkpt lat="44.24616" lon="3.7254">
        <ele>961.197</ele>
        <time>2012-05-25T09:17:08Z</time>
      </trkpt>
      <trkpt lat="44.24606" lon="3.72539">
        <ele>961.182</ele>
        <time>2012-05-25T09:17:13Z</time>
      </trkpt>
      <trkpt lat="44.24597" lon="3.72542">
        <ele>961.026</ele>
        <time>2012-05-25T09:17:22Z</time>
      </trkpt>
      <trkpt lat="44.24596" lon="3.72542">
        <ele>960.995</ele>
        <time>2012-05-25T09:17:24Z</time>
      </trkpt>
      <trkpt lat="44.2458" lon="3.72547">
        <ele>960.609</ele>
        <time>2012-05-25T09:17:36Z</time>
      </trkpt>
      <trkpt lat="44.24578" lon="3.72548">
        <ele>960.614</ele>
        <time>2012-05-25T09:17:39Z</time>
      </trkpt>
      <trkpt lat="44.24566" lon="3.72549">
        <ele>960.472</ele>
        <time>2012-05-25T09:17:49Z</time>
      </trkpt>
      <trkpt lat="44.24562" lon="3.7255">
        <ele>960.795</ele>
        <time>2012-05-25T09:17:52Z</time>
      </trkpt>
      <trkpt lat="44.24548" lon="3.72547">
        <ele>961.168</ele>
        <time>2012-05-25T09:18:01Z</time>
      </trkpt>
      <trkpt lat="44.24535" lon="3.72551">
        <ele>961.168</ele>
        <time>2012-05-25T09:18:11Z</time>
      </trkpt>
      <trkpt lat="44.24517" lon="3.72549">
        <ele>961.091</ele>
        <time>2012-05-25T09:18:20Z</time>
      </trkpt>
      <trkpt lat="44.24507" lon="3.72551">
        <ele>962.093</ele>
        <time>2012-05-25T09:18:30Z</time>
      </trkpt>
      <trkpt lat="44.24494" lon="3.72551">
        <ele>961.89</ele>
        <time>2012-05-25T09:18:43Z</time>
      </trkpt>
      <trkpt lat="44.24482" lon="3.7255">
        <ele>962.253</ele>
        <time>2012-05-25T09:18:55Z</time>
      </trkpt>
      <trkpt lat="44.24465" lon="3.72554">
        <ele>961.735</ele>
        <time>2012-05-25T09:19:08Z</time>
      </trkpt>
      <trkpt lat="44.24455" lon="3.7256">
        <ele>962.105</ele>
        <time>2012-05-25T09:19:17Z</time>
      </trkpt>
      <trkpt lat="44.24446" lon="3.72567">
        <ele>962.403</ele>
        <time>2012-05-25T09:19:27Z</time>
      </trkpt>
      <trkpt lat="44.24439" lon="3.72569">
        <ele>962.454</ele>
        <time>2012-05-25T09:19:33Z</time>
      </trkpt>
      <trkpt lat="44.24432" lon="3.7257">
        <ele>962.083</ele>
        <time>2012-05-25T09:19:46Z</time>
      </trkpt>
      <trkpt lat="44.24425" lon="3.72577">
        <ele>960.993</ele>
        <time>2012-05-25T09:27:19Z</time>
      </trkpt>
      <trkpt lat="44.24427" lon="3.72588">
        <ele>959.317</ele>
        <time>2012-05-25T09:27:32Z</time>
      </trkpt>
      <trkpt lat="44.24429" lon="3.72589">
        <ele>959.367</ele>
        <time>2012-05-25T09:27:59Z</time>
      </trkpt>
      <trkpt lat="44.2443" lon="3.72592">
        <ele>959.096</ele>
        <time>2012-05-25T09:30:12Z</time>
      </trkpt>
      <trkpt lat="44.24429" lon="3.72594">
        <ele>958.888</ele>
        <time>2012-05-25T09:30:14Z</time>
      </trkpt>
      <trkpt lat="44.24423" lon="3.72614">
        <ele>957.794</ele>
        <time>2012-05-25T09:30:28Z</time>
      </trkpt>
      <trkpt lat="44.24407" lon="3.72635">
        <ele>954.366</ele>
        <time>2012-05-25T09:30:46Z</time>
      </trkpt>
      <trkpt lat="44.24399" lon="3.72643">
        <ele>952.457</ele>
        <time>2012-05-25T09:31:01Z</time>
      </trkpt>
      <trkpt lat="44.24387" lon="3.72648">
        <ele>951.988</ele>
        <time>2012-05-25T09:31:13Z</time>
      </trkpt>
      <trkpt lat="44.24373" lon="3.72651">
        <ele>951.484</ele>
        <time>2012-05-25T09:31:27Z</time>
      </trkpt>
      <trkpt lat="44.24363" lon="3.72649">
        <ele>950.977</ele>
        <time>2012-05-25T09:31:35Z</time>
      </trkpt>
      <trkpt lat="44.2435" lon="3.72636">
        <ele>950.394</ele>
        <time>2012-05-25T09:31:48Z</time>
      </trkpt>
      <trkpt lat="44.24344" lon="3.72629">
        <ele>949.856</ele>
        <time>2012-05-25T09:32:57Z</time>
      </trkpt>
      <trkpt lat="44.24344" lon="3.72634">
        <ele>949.428</ele>
        <time>2012-05-25T09:33:01Z</time>
      </trkpt>
      <trkpt lat="44.24345" lon="3.72643">
        <ele>948.732</ele>
        <time>2012-05-25T09:33:08Z</time>
      </trkpt>
      <trkpt lat="44.24351" lon="3.72665">
        <ele>946.779</ele>
        <time>2012-05-25T09:33:23Z</time>
      </trkpt>
      <trkpt lat="44.24356" lon="3.72673">
        <ele>946.233</ele>
        <time>2012-05-25T09:33:30Z</time>
      </trkpt>
      <trkpt lat="44.24364" lon="3.72686">
        <ele>943.948</ele>
        <time>2012-05-25T09:33:43Z</time>
      </trkpt>
      <trkpt lat="44.24367" lon="3.7269">
        <ele>943.583</ele>
        <time>2012-05-25T09:33:47Z</time>
      </trkpt>
      <trkpt lat="44.24375" lon="3.72696">
        <ele>942.712</ele>
        <time>2012-05-25T09:33:54Z</time>
      </trkpt>
      <trkpt lat="44.24379" lon="3.72704">
        <ele>942.244</ele>
        <time>2012-05-25T09:33:59Z</time>
      </trkpt>
      <trkpt lat="44.24379" lon="3.72712">
        <ele>941.959</ele>
        <time>2012-05-25T09:34:07Z</time>
      </trkpt>
      <trkpt lat="44.24384" lon="3.72727">
        <ele>940.54</ele>
        <time>2012-05-25T09:34:18Z</time>
      </trkpt>
      <trkpt lat="44.24385" lon="3.72754">
        <ele>938.996</ele>
        <time>2012-05-25T09:34:37Z</time>
      </trkpt>
      <trkpt lat="44.24386" lon="3.7277">
        <ele>938.411</ele>
        <time>2012-05-25T09:34:47Z</time>
      </trkpt>
      <trkpt lat="44.24388" lon="3.72779">
        <ele>938.012</ele>
        <time>2012-05-25T09:34:53Z</time>
      </trkpt>
      <trkpt lat="44.2439" lon="3.72799">
        <ele>936.649</ele>
        <time>2012-05-25T09:35:07Z</time>
      </trkpt>
      <trkpt lat="44.24391" lon="3.72809">
        <ele>935.991</ele>
        <time>2012-05-25T09:35:14Z</time>
      </trkpt>
      <trkpt lat="44.2439" lon="3.72816">
        <ele>935.184</ele>
        <time>2012-05-25T09:35:18Z</time>
      </trkpt>
      <trkpt lat="44.2439" lon="3.72826">
        <ele>935.079</ele>
        <time>2012-05-25T09:35:24Z</time>
      </trkpt>
      <trkpt lat="44.24389" lon="3.72829">
        <ele>935.11</ele>
        <time>2012-05-25T09:35:26Z</time>
      </trkpt>
      <trkpt lat="44.2439" lon="3.72836">
        <ele>934.703</ele>
        <time>2012-05-25T09:35:31Z</time>
      </trkpt>
      <trkpt lat="44.24389" lon="3.72847">
        <ele>934.201</ele>
        <time>2012-05-25T09:35:39Z</time>
      </trkpt>
      <trkpt lat="44.2439" lon="3.72853">
        <ele>934.227</ele>
        <time>2012-05-25T09:35:43Z</time>
      </trkpt>
      <trkpt lat="44.24391" lon="3.7286">
        <ele>933.934</ele>
        <time>2012-05-25T09:35:47Z</time>
      </trkpt>
      <trkpt lat="44.24391" lon="3.72866">
        <ele>934.29</ele>
        <time>2012-05-25T09:35:51Z</time>
      </trkpt>
      <trkpt lat="44.24386" lon="3.72879">
        <ele>933.599</ele>
        <time>2012-05-25T09:36:00Z</time>
      </trkpt>
      <trkpt lat="44.24386" lon="3.72886">
        <ele>933.5</ele>
        <time>2012-05-25T09:36:04Z</time>
      </trkpt>
      <trkpt lat="44.24388" lon="3.72889">
        <ele>933.498</ele>
        <time>2012-05-25T09:36:06Z</time>
      </trkpt>
      <trkpt lat="44.24388" lon="3.72895">
        <ele>933.276</ele>
        <time>2012-05-25T09:36:10Z</time>
      </trkpt>
      <trkpt lat="44.24385" lon="3.72924">
        <ele>931.141</ele>
        <time>2012-05-25T09:36:29Z</time>
      </trkpt>
      <trkpt lat="44.24385" lon="3.72926">
        <ele>931.138</ele>
        <time>2012-05-25T09:36:30Z</time>
      </trkpt>
      <trkpt lat="44.2438" lon="3.72941">
        <ele>930.064</ele>
        <time>2012-05-25T09:36:40Z</time>
      </trkpt>
      <trkpt lat="44.24381" lon="3.72969">
        <ele>928.597</ele>
        <time>2012-05-25T09:36:58Z</time>
      </trkpt>
      <trkpt lat="44.24381" lon="3.72972">
        <ele>928.25</ele>
        <time>2012-05-25T09:37:00Z</time>
      </trkpt>
      <trkpt lat="44.24377" lon="3.72978">
        <ele>927.983</ele>
        <time>2012-05-25T09:37:05Z</time>
      </trkpt>
      <trkpt lat="44.24376" lon="3.72983">
        <ele>928.07</ele>
        <time>2012-05-25T09:37:09Z</time>
      </trkpt>
      <trkpt lat="44.24376" lon="3.72993">
        <ele>928.237</ele>
        <time>2012-05-25T09:37:14Z</time>
      </trkpt>
      <trkpt lat="44.24373" lon="3.73011">
        <ele>927.861</ele>
        <time>2012-05-25T09:37:25Z</time>
      </trkpt>
      <trkpt lat="44.24372" lon="3.73015">
        <ele>927.908</ele>
        <time>2012-05-25T09:37:28Z</time>
      </trkpt>
      <trkpt lat="44.24361" lon="3.73037">
        <ele>929.154</ele>
        <time>2012-05-25T09:37:46Z</time>
      </trkpt>
      <trkpt lat="44.24346" lon="3.73051">
        <ele>931.078</ele>
        <time>2012-05-25T09:38:05Z</time>
      </trkpt>
      <trkpt lat="44.24345" lon="3.73053">
        <ele>931.034</ele>
        <time>2012-05-25T09:38:08Z</time>
      </trkpt>
      <trkpt lat="44.24343" lon="3.73057">
        <ele>931.359</ele>
        <time>2012-05-25T09:38:12Z</time>
      </trkpt>
      <trkpt lat="44.24337" lon="3.73068">
        <ele>932.678</ele>
        <time>2012-05-25T09:38:21Z</time>
      </trkpt>
      <trkpt lat="44.24328" lon="3.7308">
        <ele>933.603</ele>
        <time>2012-05-25T09:38:32Z</time>
      </trkpt>
      <trkpt lat="44.2432" lon="3.73094">
        <ele>935.058</ele>
        <time>2012-05-25T09:38:45Z</time>
      </trkpt>
      <trkpt lat="44.24317" lon="3.73102">
        <ele>936.211</ele>
        <time>2012-05-25T09:39:01Z</time>
      </trkpt>
      <trkpt lat="44.24314" lon="3.73105">
        <ele>936.499</ele>
        <time>2012-05-25T09:39:45Z</time>
      </trkpt>
      <trkpt lat="44.24305" lon="3.73122">
        <ele>937.163</ele>
        <time>2012-05-25T09:39:57Z</time>
      </trkpt>
      <trkpt lat="44.24303" lon="3.73128">
        <ele>937.358</ele>
        <time>2012-05-25T09:40:31Z</time>
      </trkpt>
      <trkpt lat="44.24293" lon="3.73146">
        <ele>938.182</ele>
        <time>2012-05-25T09:40:48Z</time>
      </trkpt>
      <trkpt lat="44.24285" lon="3.73162">
        <ele>939.94</ele>
        <time>2012-05-25T09:41:02Z</time>
      </trkpt>
      <trkpt lat="44.24271" lon="3.73181">
        <ele>941.009</ele>
        <time>2012-05-25T09:41:19Z</time>
      </trkpt>
      <trkpt lat="44.24261" lon="3.73197">
        <ele>941.874</ele>
        <time>2012-05-25T09:41:31Z</time>
      </trkpt>
      <trkpt lat="44.24259" lon="3.73203">
        <ele>942.373</ele>
        <time>2012-05-25T09:41:36Z</time>
      </trkpt>
      <trkpt lat="44.24259" lon="3.73208">
        <ele>942.397</ele>
        <time>2012-05-25T09:41:40Z</time>
      </trkpt>
      <trkpt lat="44.24259" lon="3.73211">
        <ele>942.133</ele>
        <time>2012-05-25T09:41:42Z</time>
      </trkpt>
      <trkpt lat="44.24252" lon="3.73225">
        <ele>943.168</ele>
        <time>2012-05-25T09:41:53Z</time>
      </trkpt>
      <trkpt lat="44.24239" lon="3.7325">
        <ele>943.705</ele>
        <time>2012-05-25T09:42:10Z</time>
      </trkpt>
      <trkpt lat="44.24228" lon="3.73268">
        <ele>944.582</ele>
        <time>2012-05-25T09:42:23Z</time>
      </trkpt>
      <trkpt lat="44.24221" lon="3.73289">
        <ele>945.508</ele>
        <time>2012-05-25T09:42:43Z</time>
      </trkpt>
      <trkpt lat="44.24217" lon="3.73299">
        <ele>945.485</ele>
        <time>2012-05-25T09:45:16Z</time>
      </trkpt>
      <trkpt lat="44.24215" lon="3.73303">
        <ele>945.308</ele>
        <time>2012-05-25T09:46:04Z</time>
      </trkpt>
      <trkpt lat="44.24222" lon="3.73335">
        <ele>946.234</ele>
        <time>2012-05-25T09:46:25Z</time>
      </trkpt>
      <trkpt lat="44.24226" lon="3.7335">
        <ele>946.838</ele>
        <time>2012-05-25T09:46:34Z</time>
      </trkpt>
      <trkpt lat="44.24227" lon="3.73358">
        <ele>947.066</ele>
        <time>2012-05-25T09:46:39Z</time>
      </trkpt>
      <trkpt lat="44.24229" lon="3.73364">
        <ele>946.86</ele>
        <time>2012-05-25T09:46:43Z</time>
      </trkpt>
      <trkpt lat="44.2423" lon="3.73372">
        <ele>947.582</ele>
        <time>2012-05-25T09:46:48Z</time>
      </trkpt>
      <trkpt lat="44.24234" lon="3.73379">
        <ele>947.839</ele>
        <time>2012-05-25T09:46:53Z</time>
      </trkpt>
      <trkpt lat="44.24235" lon="3.73384">
        <ele>947.603</ele>
        <time>2012-05-25T09:46:57Z</time>
      </trkpt>
      <trkpt lat="44.24244" lon="3.7341">
        <ele>948.535</ele>
        <time>2012-05-25T09:47:14Z</time>
      </trkpt>
      <trkpt lat="44.24248" lon="3.73436">
        <ele>950.348</ele>
        <time>2012-05-25T09:47:32Z</time>
      </trkpt>
      <trkpt lat="44.24251" lon="3.73446">
        <ele>951.276</ele>
        <time>2012-05-25T09:47:39Z</time>
      </trkpt>
      <trkpt lat="44.24255" lon="3.73463">
        <ele>952.297</ele>
        <time>2012-05-25T09:47:51Z</time>
      </trkpt>
      <trkpt lat="44.24261" lon="3.73478">
        <ele>953.151</ele>
        <time>2012-05-25T09:48:02Z</time>
      </trkpt>
      <trkpt lat="44.24262" lon="3.73483">
        <ele>952.943</ele>
        <time>2012-05-25T09:48:06Z</time>
      </trkpt>
      <trkpt lat="44.2427" lon="3.73497">
        <ele>953.939</ele>
        <time>2012-05-25T09:48:19Z</time>
      </trkpt>
      <trkpt lat="44.24286" lon="3.73515">
        <ele>954.836</ele>
        <time>2012-05-25T09:48:37Z</time>
      </trkpt>
      <trkpt lat="44.24293" lon="3.7353">
        <ele>955.595</ele>
        <time>2012-05-25T09:48:49Z</time>
      </trkpt>
      <trkpt lat="44.24294" lon="3.73542">
        <ele>955.772</ele>
        <time>2012-05-25T09:48:56Z</time>
      </trkpt>
      <trkpt lat="44.24287" lon="3.73559">
        <ele>956.195</ele>
        <time>2012-05-25T09:49:08Z</time>
      </trkpt>
      <trkpt lat="44.24281" lon="3.7357">
        <ele>956.602</ele>
        <time>2012-05-25T09:49:17Z</time>
      </trkpt>
      <trkpt lat="44.24275" lon="3.73579">
        <ele>957.202</ele>
        <time>2012-05-25T09:49:24Z</time>
      </trkpt>
      <trkpt lat="44.24274" lon="3.73584">
        <ele>956.984</ele>
        <time>2012-05-25T09:49:27Z</time>
      </trkpt>
      <trkpt lat="44.24271" lon="3.73594">
        <ele>957.586</ele>
        <time>2012-05-25T09:49:34Z</time>
      </trkpt>
      <trkpt lat="44.24269" lon="3.73596">
        <ele>957.667</ele>
        <time>2012-05-25T09:49:36Z</time>
      </trkpt>
      <trkpt lat="44.24268" lon="3.73612">
        <ele>958.568</ele>
        <time>2012-05-25T09:49:45Z</time>
      </trkpt>
      <trkpt lat="44.24266" lon="3.73625">
        <ele>959.805</ele>
        <time>2012-05-25T09:49:56Z</time>
      </trkpt>
      <trkpt lat="44.24276" lon="3.73647">
        <ele>959.968</ele>
        <time>2012-05-25T09:50:10Z</time>
      </trkpt>
      <trkpt lat="44.24278" lon="3.7365">
        <ele>959.959</ele>
        <time>2012-05-25T09:50:12Z</time>
      </trkpt>
      <trkpt lat="44.24278" lon="3.73654">
        <ele>960.411</ele>
        <time>2012-05-25T09:50:15Z</time>
      </trkpt>
      <trkpt lat="44.2428" lon="3.73657">
        <ele>960.553</ele>
        <time>2012-05-25T09:50:18Z</time>
      </trkpt>
      <trkpt lat="44.24284" lon="3.73663">
        <ele>961.006</ele>
        <time>2012-05-25T09:50:23Z</time>
      </trkpt>
      <trkpt lat="44.24287" lon="3.73667">
        <ele>960.794</ele>
        <time>2012-05-25T09:50:26Z</time>
      </trkpt>
      <trkpt lat="44.24291" lon="3.73697">
        <ele>962.155</ele>
        <time>2012-05-25T09:50:45Z</time>
      </trkpt>
      <trkpt lat="44.2429" lon="3.73705">
        <ele>962.512</ele>
        <time>2012-05-25T09:50:50Z</time>
      </trkpt>
      <trkpt lat="44.24286" lon="3.73709">
        <ele>962.148</ele>
        <time>2012-05-25T09:50:54Z</time>
      </trkpt>
      <trkpt lat="44.24275" lon="3.73727">
        <ele>963.517</ele>
        <time>2012-05-25T09:51:09Z</time>
      </trkpt>
      <trkpt lat="44.24271" lon="3.73739">
        <ele>963.948</ele>
        <time>2012-05-25T09:51:17Z</time>
      </trkpt>
      <trkpt lat="44.24268" lon="3.7375">
        <ele>964.574</ele>
        <time>2012-05-25T09:51:25Z</time>
      </trkpt>
      <trkpt lat="44.24271" lon="3.73764">
        <ele>965.578</ele>
        <time>2012-05-25T09:51:35Z</time>
      </trkpt>
      <trkpt lat="44.24272" lon="3.73771">
        <ele>965.898</ele>
        <time>2012-05-25T09:51:40Z</time>
      </trkpt>
      <trkpt lat="44.24275" lon="3.73777">
        <ele>966.344</ele>
        <time>2012-05-25T09:51:45Z</time>
      </trkpt>
      <trkpt lat="44.24283" lon="3.73791">
        <ele>967.593</ele>
        <time>2012-05-25T09:51:58Z</time>
      </trkpt>
      <trkpt lat="44.24286" lon="3.73797">
        <ele>967.766</ele>
        <time>2012-05-25T09:52:03Z</time>
      </trkpt>
      <trkpt lat="44.24287" lon="3.73811">
        <ele>968.159</ele>
        <time>2012-05-25T09:52:11Z</time>
      </trkpt>
      <trkpt lat="44.24289" lon="3.7382">
        <ele>968.756</ele>
        <time>2012-05-25T09:52:17Z</time>
      </trkpt>
      <trkpt lat="44.24291" lon="3.73852">
        <ele>970.053</ele>
        <time>2012-05-25T09:52:37Z</time>
      </trkpt>
      <trkpt lat="44.24291" lon="3.73859">
        <ele>970.4</ele>
        <time>2012-05-25T09:52:42Z</time>
      </trkpt>
      <trkpt lat="44.24287" lon="3.73889">
        <ele>972.473</ele>
        <time>2012-05-25T09:53:03Z</time>
      </trkpt>
      <trkpt lat="44.24283" lon="3.73903">
        <ele>973.471</ele>
        <time>2012-05-25T09:53:14Z</time>
      </trkpt>
      <trkpt lat="44.24275" lon="3.73926">
        <ele>975.099</ele>
        <time>2012-05-25T09:53:30Z</time>
      </trkpt>
      <trkpt lat="44.24271" lon="3.73943">
        <ele>975.797</ele>
        <time>2012-05-25T09:53:47Z</time>
      </trkpt>
      <trkpt lat="44.24271" lon="3.73952">
        <ele>975.985</ele>
        <time>2012-05-25T09:53:54Z</time>
      </trkpt>
      <trkpt lat="44.24266" lon="3.73982">
        <ele>977.461</ele>
        <time>2012-05-25T09:54:15Z</time>
      </trkpt>
      <trkpt lat="44.24263" lon="3.7401">
        <ele>979.26</ele>
        <time>2012-05-25T09:54:33Z</time>
      </trkpt>
      <trkpt lat="44.24259" lon="3.74035">
        <ele>980.847</ele>
        <time>2012-05-25T09:54:51Z</time>
      </trkpt>
      <trkpt lat="44.24253" lon="3.74066">
        <ele>981.751</ele>
        <time>2012-05-25T09:55:13Z</time>
      </trkpt>
      <trkpt lat="44.24251" lon="3.7408">
        <ele>982.704</ele>
        <time>2012-05-25T09:55:22Z</time>
      </trkpt>
      <trkpt lat="44.24252" lon="3.74087">
        <ele>982.538</ele>
        <time>2012-05-25T09:55:27Z</time>
      </trkpt>
      <trkpt lat="44.24251" lon="3.74119">
        <ele>984.019</ele>
        <time>2012-05-25T09:55:46Z</time>
      </trkpt>
      <trkpt lat="44.24251" lon="3.74146">
        <ele>984.303</ele>
        <time>2012-05-25T09:56:02Z</time>
      </trkpt>
      <trkpt lat="44.24252" lon="3.7416">
        <ele>985.145</ele>
        <time>2012-05-25T09:56:11Z</time>
      </trkpt>
      <trkpt lat="44.2425" lon="3.74189">
        <ele>985.818</ele>
        <time>2012-05-25T09:56:30Z</time>
      </trkpt>
      <trkpt lat="44.24242" lon="3.74201">
        <ele>986.98</ele>
        <time>2012-05-25T09:56:40Z</time>
      </trkpt>
      <trkpt lat="44.24235" lon="3.74229">
        <ele>988.517</ele>
        <time>2012-05-25T09:56:59Z</time>
      </trkpt>
      <trkpt lat="44.24234" lon="3.74239">
        <ele>989.413</ele>
        <time>2012-05-25T09:57:07Z</time>
      </trkpt>
      <trkpt lat="44.24235" lon="3.74243">
        <ele>989.963</ele>
        <time>2012-05-25T09:57:10Z</time>
      </trkpt>
      <trkpt lat="44.24245" lon="3.74255">
        <ele>990.408</ele>
        <time>2012-05-25T09:57:24Z</time>
      </trkpt>
      <trkpt lat="44.24254" lon="3.74274">
        <ele>991.431</ele>
        <time>2012-05-25T09:57:41Z</time>
      </trkpt>
      <trkpt lat="44.24253" lon="3.74282">
        <ele>991.667</ele>
        <time>2012-05-25T09:57:46Z</time>
      </trkpt>
      <trkpt lat="44.2425" lon="3.74291">
        <ele>992.413</ele>
        <time>2012-05-25T09:57:52Z</time>
      </trkpt>
      <trkpt lat="44.24248" lon="3.74297">
        <ele>992.746</ele>
        <time>2012-05-25T09:57:57Z</time>
      </trkpt>
      <trkpt lat="44.24237" lon="3.74329">
        <ele>993.571</ele>
        <time>2012-05-25T09:58:19Z</time>
      </trkpt>
      <trkpt lat="44.24228" lon="3.74343">
        <ele>994.931</ele>
        <time>2012-05-25T09:58:32Z</time>
      </trkpt>
      <trkpt lat="44.24218" lon="3.74356">
        <ele>995.739</ele>
        <time>2012-05-25T09:58:45Z</time>
      </trkpt>
      <trkpt lat="44.24216" lon="3.74358">
        <ele>995.863</ele>
        <time>2012-05-25T09:58:47Z</time>
      </trkpt>
      <trkpt lat="44.24214" lon="3.74364">
        <ele>997.544</ele>
        <time>2012-05-25T09:58:51Z</time>
      </trkpt>
      <trkpt lat="44.24212" lon="3.74367">
        <ele>997.121</ele>
        <time>2012-05-25T09:58:54Z</time>
      </trkpt>
      <trkpt lat="44.2421" lon="3.74372">
        <ele>997.704</ele>
        <time>2012-05-25T09:58:57Z</time>
      </trkpt>
      <trkpt lat="44.24209" lon="3.74379">
        <ele>998.414</ele>
        <time>2012-05-25T09:59:02Z</time>
      </trkpt>
      <trkpt lat="44.24207" lon="3.74411">
        <ele>1000.361</ele>
        <time>2012-05-25T09:59:21Z</time>
      </trkpt>
      <trkpt lat="44.24207" lon="3.74415">
        <ele>1000.607</ele>
        <time>2012-05-25T09:59:23Z</time>
      </trkpt>
      <trkpt lat="44.24212" lon="3.74426">
        <ele>1001.597</ele>
        <time>2012-05-25T09:59:30Z</time>
      </trkpt>
      <trkpt lat="44.24213" lon="3.7443">
        <ele>1001.87</ele>
        <time>2012-05-25T09:59:32Z</time>
      </trkpt>
      <trkpt lat="44.24222" lon="3.74455">
        <ele>1003.48</ele>
        <time>2012-05-25T09:59:49Z</time>
      </trkpt>
      <trkpt lat="44.24228" lon="3.74462">
        <ele>1003.566</ele>
        <time>2012-05-25T09:59:56Z</time>
      </trkpt>
      <trkpt lat="44.24232" lon="3.74465">
        <ele>1003.792</ele>
        <time>2012-05-25T10:00:00Z</time>
      </trkpt>
      <trkpt lat="44.24235" lon="3.74472">
        <ele>1004.169</ele>
        <time>2012-05-25T10:00:05Z</time>
      </trkpt>
      <trkpt lat="44.24238" lon="3.74481">
        <ele>1004.404</ele>
        <time>2012-05-25T10:00:11Z</time>
      </trkpt>
      <trkpt lat="44.24242" lon="3.74496">
        <ele>1005.123</ele>
        <time>2012-05-25T10:00:20Z</time>
      </trkpt>
      <trkpt lat="44.24242" lon="3.74508">
        <ele>1005.758</ele>
        <time>2012-05-25T10:00:27Z</time>
      </trkpt>
      <trkpt lat="44.24241" lon="3.74512">
        <ele>1005.968</ele>
        <time>2012-05-25T10:00:29Z</time>
      </trkpt>
      <trkpt lat="44.24238" lon="3.74525">
        <ele>1006.319</ele>
        <time>2012-05-25T10:00:36Z</time>
      </trkpt>
      <trkpt lat="44.24236" lon="3.74529">
        <ele>1006.274</ele>
        <time>2012-05-25T10:00:39Z</time>
      </trkpt>
      <trkpt lat="44.24234" lon="3.74538">
        <ele>1007.218</ele>
        <time>2012-05-25T10:00:44Z</time>
      </trkpt>
      <trkpt lat="44.24231" lon="3.74551">
        <ele>1007.738</ele>
        <time>2012-05-25T10:00:51Z</time>
      </trkpt>
      <trkpt lat="44.24224" lon="3.74572">
        <ele>1009.441</ele>
        <time>2012-05-25T10:01:04Z</time>
      </trkpt>
      <trkpt lat="44.24222" lon="3.74597">
        <ele>1011.021</ele>
        <time>2012-05-25T10:01:18Z</time>
      </trkpt>
      <trkpt lat="44.24222" lon="3.74599">
        <ele>1011.021</ele>
        <time>2012-05-25T10:01:19Z</time>
      </trkpt>
      <trkpt lat="44.24216" lon="3.74623">
        <ele>1011.976</ele>
        <time>2012-05-25T10:01:35Z</time>
      </trkpt>
      <trkpt lat="44.24214" lon="3.74636">
        <ele>1012.578</ele>
        <time>2012-05-25T10:01:41Z</time>
      </trkpt>
      <trkpt lat="44.24212" lon="3.74638">
        <ele>1012.494</ele>
        <time>2012-05-25T10:01:43Z</time>
      </trkpt>
      <trkpt lat="44.24204" lon="3.74667">
        <ele>1013.883</ele>
        <time>2012-05-25T10:01:59Z</time>
      </trkpt>
      <trkpt lat="44.24193" lon="3.74694">
        <ele>1014.918</ele>
        <time>2012-05-25T10:02:17Z</time>
      </trkpt>
      <trkpt lat="44.24183" lon="3.74722">
        <ele>1016.679</ele>
        <time>2012-05-25T10:02:35Z</time>
      </trkpt>
      <trkpt lat="44.24176" lon="3.7474">
        <ele>1018.155</ele>
        <time>2012-05-25T10:02:54Z</time>
      </trkpt>
      <trkpt lat="44.24168" lon="3.74741">
        <ele>1015.914</ele>
        <time>2012-05-25T10:03:03Z</time>
      </trkpt>
      <trkpt lat="44.24165" lon="3.74742">
        <ele>1014.596</ele>
        <time>2012-05-25T10:03:06Z</time>
      </trkpt>
      <trkpt lat="44.24157" lon="3.74739">
        <ele>1012.426</ele>
        <time>2012-05-25T10:03:14Z</time>
      </trkpt>
      <trkpt lat="44.2415" lon="3.74739">
        <ele>1011.546</ele>
        <time>2012-05-25T10:03:20Z</time>
      </trkpt>
      <trkpt lat="44.24131" lon="3.7474">
        <ele>1005.601</ele>
        <time>2012-05-25T10:03:53Z</time>
      </trkpt>
      <trkpt lat="44.24117" lon="3.74739">
        <ele>1004.592</ele>
        <time>2012-05-25T10:04:23Z</time>
      </trkpt>
      <trkpt lat="44.24111" lon="3.74732">
        <ele>1002.207</ele>
        <time>2012-05-25T10:04:41Z</time>
      </trkpt>
      <trkpt lat="44.24119" lon="3.74735">
        <ele>1003.868</ele>
        <time>2012-05-25T10:09:39Z</time>
      </trkpt>
      <trkpt lat="44.2412" lon="3.74741">
        <ele>1004.694</ele>
        <time>2012-05-25T10:09:58Z</time>
      </trkpt>
      <trkpt lat="44.24123" lon="3.74738">
        <ele>1004.291</ele>
        <time>2012-05-25T10:10:27Z</time>
      </trkpt>
      <trkpt lat="44.24128" lon="3.74734">
        <ele>1004.464</ele>
        <time>2012-05-25T10:11:14Z</time>
      </trkpt>
      <trkpt lat="44.24139" lon="3.74737">
        <ele>1006.833</ele>
        <time>2012-05-25T10:11:30Z</time>
      </trkpt>
      <trkpt lat="44.24151" lon="3.74734">
        <ele>1009.921</ele>
        <time>2012-05-25T10:11:46Z</time>
      </trkpt>
      <trkpt lat="44.24166" lon="3.7474">
        <ele>1013.203</ele>
        <time>2012-05-25T10:12:07Z</time>
      </trkpt>
      <trkpt lat="44.24176" lon="3.74742">
        <ele>1017.396</ele>
        <time>2012-05-25T10:13:59Z</time>
      </trkpt>
      <trkpt lat="44.24178" lon="3.74751">
        <ele>1017.395</ele>
        <time>2012-05-25T10:14:06Z</time>
      </trkpt>
      <trkpt lat="44.2418" lon="3.74769">
        <ele>1017.355</ele>
        <time>2012-05-25T10:14:24Z</time>
      </trkpt>
      <trkpt lat="44.24184" lon="3.74795">
        <ele>1018.342</ele>
        <time>2012-05-25T10:14:44Z</time>
      </trkpt>
      <trkpt lat="44.24192" lon="3.74812">
        <ele>1018.95</ele>
        <time>2012-05-25T10:14:59Z</time>
      </trkpt>
      <trkpt lat="44.24192" lon="3.74813">
        <ele>1019.052</ele>
        <time>2012-05-25T10:15:00Z</time>
      </trkpt>
      <trkpt lat="44.24194" lon="3.74816">
        <ele>1019.553</ele>
        <time>2012-05-25T10:15:03Z</time>
      </trkpt>
      <trkpt lat="44.24207" lon="3.74827">
        <ele>1020.839</ele>
        <time>2012-05-25T10:15:19Z</time>
      </trkpt>
      <trkpt lat="44.24209" lon="3.74828">
        <ele>1020.755</ele>
        <time>2012-05-25T10:15:22Z</time>
      </trkpt>
      <trkpt lat="44.2422" lon="3.74836">
        <ele>1021.747</ele>
        <time>2012-05-25T10:15:38Z</time>
      </trkpt>
      <trkpt lat="44.24226" lon="3.74838">
        <ele>1022.066</ele>
        <time>2012-05-25T10:15:43Z</time>
      </trkpt>
      <trkpt lat="44.24231" lon="3.74845">
        <ele>1022.187</ele>
        <time>2012-05-25T10:15:50Z</time>
      </trkpt>
      <trkpt lat="44.24242" lon="3.74861">
        <ele>1021.51</ele>
        <time>2012-05-25T10:16:05Z</time>
      </trkpt>
      <trkpt lat="44.2425" lon="3.74875">
        <ele>1020.62</ele>
        <time>2012-05-25T10:16:17Z</time>
      </trkpt>
      <trkpt lat="44.24255" lon="3.74886">
        <ele>1020.211</ele>
        <time>2012-05-25T10:16:25Z</time>
      </trkpt>
      <trkpt lat="44.24261" lon="3.74903">
        <ele>1020.239</ele>
        <time>2012-05-25T10:16:38Z</time>
      </trkpt>
      <trkpt lat="44.24265" lon="3.74929">
        <ele>1019.027</ele>
        <time>2012-05-25T10:16:54Z</time>
      </trkpt>
      <trkpt lat="44.24269" lon="3.74947">
        <ele>1019.888</ele>
        <time>2012-05-25T10:17:07Z</time>
      </trkpt>
      <trkpt lat="44.24271" lon="3.74967">
        <ele>1020.786</ele>
        <time>2012-05-25T10:17:21Z</time>
      </trkpt>
      <trkpt lat="44.24275" lon="3.74976">
        <ele>1021.064</ele>
        <time>2012-05-25T10:17:29Z</time>
      </trkpt>
      <trkpt lat="44.24277" lon="3.74986">
        <ele>1021.715</ele>
        <time>2012-05-25T10:17:35Z</time>
      </trkpt>
      <trkpt lat="44.24288" lon="3.75005">
        <ele>1022.895</ele>
        <time>2012-05-25T10:17:51Z</time>
      </trkpt>
      <trkpt lat="44.24293" lon="3.75011">
        <ele>1023.242</ele>
        <time>2012-05-25T10:17:58Z</time>
      </trkpt>
      <trkpt lat="44.24294" lon="3.75016">
        <ele>1023.494</ele>
        <time>2012-05-25T10:18:01Z</time>
      </trkpt>
      <trkpt lat="44.24297" lon="3.75035">
        <ele>1024.555</ele>
        <time>2012-05-25T10:18:18Z</time>
      </trkpt>
      <trkpt lat="44.24298" lon="3.75056">
        <ele>1025.71</ele>
        <time>2012-05-25T10:18:33Z</time>
      </trkpt>
      <trkpt lat="44.24299" lon="3.75073">
        <ele>1027.278</ele>
        <time>2012-05-25T10:18:47Z</time>
      </trkpt>
      <trkpt lat="44.243" lon="3.75084">
        <ele>1028.174</ele>
        <time>2012-05-25T10:18:59Z</time>
      </trkpt>
      <trkpt lat="44.24301" lon="3.75089">
        <ele>1028.205</ele>
        <time>2012-05-25T10:19:02Z</time>
      </trkpt>
      <trkpt lat="44.24309" lon="3.75105">
        <ele>1029.097</ele>
        <time>2012-05-25T10:19:14Z</time>
      </trkpt>
      <trkpt lat="44.24311" lon="3.75116">
        <ele>1029.955</ele>
        <time>2012-05-25T10:19:26Z</time>
      </trkpt>
      <trkpt lat="44.24314" lon="3.75137">
        <ele>1030.498</ele>
        <time>2012-05-25T10:19:41Z</time>
      </trkpt>
      <trkpt lat="44.24318" lon="3.75144">
        <ele>1030.732</ele>
        <time>2012-05-25T10:19:46Z</time>
      </trkpt>
      <trkpt lat="44.24316" lon="3.75158">
        <ele>1031.721</ele>
        <time>2012-05-25T10:19:55Z</time>
      </trkpt>
      <trkpt lat="44.24315" lon="3.75164">
        <ele>1032.105</ele>
        <time>2012-05-25T10:19:59Z</time>
      </trkpt>
      <trkpt lat="44.24317" lon="3.75183">
        <ele>1032.784</ele>
        <time>2012-05-25T10:20:09Z</time>
      </trkpt>
      <trkpt lat="44.24315" lon="3.7519">
        <ele>1033.225</ele>
        <time>2012-05-25T10:20:14Z</time>
      </trkpt>
      <trkpt lat="44.24317" lon="3.75196">
        <ele>1033.479</ele>
        <time>2012-05-25T10:20:17Z</time>
      </trkpt>
      <trkpt lat="44.24315" lon="3.75205">
        <ele>1033.92</ele>
        <time>2012-05-25T10:20:23Z</time>
      </trkpt>
      <trkpt lat="44.24311" lon="3.75215">
        <ele>1035.342</ele>
        <time>2012-05-25T10:20:37Z</time>
      </trkpt>
      <trkpt lat="44.24308" lon="3.75228">
        <ele>1036.555</ele>
        <time>2012-05-25T10:20:45Z</time>
      </trkpt>
      <trkpt lat="44.24304" lon="3.75237">
        <ele>1037.615</ele>
        <time>2012-05-25T10:20:54Z</time>
      </trkpt>
      <trkpt lat="44.24301" lon="3.75254">
        <ele>1039.081</ele>
        <time>2012-05-25T10:21:07Z</time>
      </trkpt>
      <trkpt lat="44.243" lon="3.7526">
        <ele>1040.074</ele>
        <time>2012-05-25T10:21:11Z</time>
      </trkpt>
      <trkpt lat="44.24296" lon="3.75271">
        <ele>1040.818</ele>
        <time>2012-05-25T10:21:19Z</time>
      </trkpt>
      <trkpt lat="44.24294" lon="3.75273">
        <ele>1040.783</ele>
        <time>2012-05-25T10:21:21Z</time>
      </trkpt>
      <trkpt lat="44.24293" lon="3.75276">
        <ele>1040.658</ele>
        <time>2012-05-25T10:21:23Z</time>
      </trkpt>
      <trkpt lat="44.24291" lon="3.75277">
        <ele>1041.543</ele>
        <time>2012-05-25T10:21:25Z</time>
      </trkpt>
      <trkpt lat="44.24288" lon="3.75287">
        <ele>1042.346</ele>
        <time>2012-05-25T10:21:32Z</time>
      </trkpt>
      <trkpt lat="44.24281" lon="3.75307">
        <ele>1043.153</ele>
        <time>2012-05-25T10:21:47Z</time>
      </trkpt>
      <trkpt lat="44.24281" lon="3.75312">
        <ele>1043.044</ele>
        <time>2012-05-25T10:21:49Z</time>
      </trkpt>
      <trkpt lat="44.2428" lon="3.7532">
        <ele>1043.028</ele>
        <time>2012-05-25T10:21:54Z</time>
      </trkpt>
      <trkpt lat="44.24278" lon="3.75331">
        <ele>1043.495</ele>
        <time>2012-05-25T10:22:02Z</time>
      </trkpt>
      <trkpt lat="44.24275" lon="3.75344">
        <ele>1044.418</ele>
        <time>2012-05-25T10:22:09Z</time>
      </trkpt>
      <trkpt lat="44.24274" lon="3.75346">
        <ele>1044.037</ele>
        <time>2012-05-25T10:22:11Z</time>
      </trkpt>
      <trkpt lat="44.24274" lon="3.7535">
        <ele>1043.918</ele>
        <time>2012-05-25T10:22:13Z</time>
      </trkpt>
      <trkpt lat="44.24272" lon="3.75355">
        <ele>1044.045</ele>
        <time>2012-05-25T10:22:16Z</time>
      </trkpt>
      <trkpt lat="44.24268" lon="3.75368">
        <ele>1044.903</ele>
        <time>2012-05-25T10:22:25Z</time>
      </trkpt>
      <trkpt lat="44.24266" lon="3.75371">
        <ele>1044.634</ele>
        <time>2012-05-25T10:22:28Z</time>
      </trkpt>
      <trkpt lat="44.24258" lon="3.75387">
        <ele>1045.859</ele>
        <time>2012-05-25T10:22:42Z</time>
      </trkpt>
      <trkpt lat="44.24251" lon="3.75397">
        <ele>1046.419</ele>
        <time>2012-05-25T10:22:51Z</time>
      </trkpt>
      <trkpt lat="44.24247" lon="3.75402">
        <ele>1047.16</ele>
        <time>2012-05-25T10:22:56Z</time>
      </trkpt>
      <trkpt lat="44.24244" lon="3.75404">
        <ele>1047.315</ele>
        <time>2012-05-25T10:22:58Z</time>
      </trkpt>
      <trkpt lat="44.24239" lon="3.75411">
        <ele>1048.209</ele>
        <time>2012-05-25T10:23:05Z</time>
      </trkpt>
      <trkpt lat="44.24235" lon="3.75424">
        <ele>1049.045</ele>
        <time>2012-05-25T10:23:14Z</time>
      </trkpt>
      <trkpt lat="44.24223" lon="3.75451">
        <ele>1050.501</ele>
        <time>2012-05-25T10:23:34Z</time>
      </trkpt>
      <trkpt lat="44.24222" lon="3.75475">
        <ele>1051.511</ele>
        <time>2012-05-25T10:23:49Z</time>
      </trkpt>
      <trkpt lat="44.24227" lon="3.75492">
        <ele>1051.785</ele>
        <time>2012-05-25T10:24:03Z</time>
      </trkpt>
      <trkpt lat="44.24233" lon="3.75497">
        <ele>1052.63</ele>
        <time>2012-05-25T10:24:09Z</time>
      </trkpt>
      <trkpt lat="44.24242" lon="3.75499">
        <ele>1053.582</ele>
        <time>2012-05-25T10:24:22Z</time>
      </trkpt>
      <trkpt lat="44.24251" lon="3.75499">
        <ele>1054.172</ele>
        <time>2012-05-25T10:24:30Z</time>
      </trkpt>
      <trkpt lat="44.24265" lon="3.75495">
        <ele>1055.518</ele>
        <time>2012-05-25T10:24:43Z</time>
      </trkpt>
      <trkpt lat="44.24281" lon="3.75496">
        <ele>1057.366</ele>
        <time>2012-05-25T10:25:00Z</time>
      </trkpt>
      <trkpt lat="44.24287" lon="3.75496">
        <ele>1057.867</ele>
        <time>2012-05-25T10:25:06Z</time>
      </trkpt>
      <trkpt lat="44.24297" lon="3.75499">
        <ele>1058.704</ele>
        <time>2012-05-25T10:25:16Z</time>
      </trkpt>
      <trkpt lat="44.24302" lon="3.755">
        <ele>1059.098</ele>
        <time>2012-05-25T10:25:22Z</time>
      </trkpt>
      <trkpt lat="44.24307" lon="3.75497">
        <ele>1059.234</ele>
        <time>2012-05-25T10:25:26Z</time>
      </trkpt>
      <trkpt lat="44.24314" lon="3.75501">
        <ele>1059.535</ele>
        <time>2012-05-25T10:25:32Z</time>
      </trkpt>
      <trkpt lat="44.24321" lon="3.75506">
        <ele>1060.766</ele>
        <time>2012-05-25T10:25:39Z</time>
      </trkpt>
      <trkpt lat="44.24324" lon="3.75509">
        <ele>1061.011</ele>
        <time>2012-05-25T10:25:42Z</time>
      </trkpt>
      <trkpt lat="44.24327" lon="3.75512">
        <ele>1061.245</ele>
        <time>2012-05-25T10:25:46Z</time>
      </trkpt>
      <trkpt lat="44.24332" lon="3.75515">
        <ele>1061.753</ele>
        <time>2012-05-25T10:25:50Z</time>
      </trkpt>
      <trkpt lat="44.24335" lon="3.7552">
        <ele>1062.198</ele>
        <time>2012-05-25T10:25:54Z</time>
      </trkpt>
      <trkpt lat="44.2434" lon="3.75538">
        <ele>1063.444</ele>
        <time>2012-05-25T10:26:08Z</time>
      </trkpt>
      <trkpt lat="44.24342" lon="3.75551">
        <ele>1064.776</ele>
        <time>2012-05-25T10:26:18Z</time>
      </trkpt>
      <trkpt lat="44.24341" lon="3.75566">
        <ele>1066.144</ele>
        <time>2012-05-25T10:26:29Z</time>
      </trkpt>
      <trkpt lat="44.2434" lon="3.75587">
        <ele>1067.197</ele>
        <time>2012-05-25T10:26:42Z</time>
      </trkpt>
      <trkpt lat="44.24345" lon="3.75609">
        <ele>1067.878</ele>
        <time>2012-05-25T10:26:58Z</time>
      </trkpt>
      <trkpt lat="44.2435" lon="3.75615">
        <ele>1068.22</ele>
        <time>2012-05-25T10:27:05Z</time>
      </trkpt>
      <trkpt lat="44.24352" lon="3.75619">
        <ele>1067.952</ele>
        <time>2012-05-25T10:27:22Z</time>
      </trkpt>
      <trkpt lat="44.24356" lon="3.75625">
        <ele>1067.534</ele>
        <time>2012-05-25T10:28:29Z</time>
      </trkpt>
      <trkpt lat="44.24351" lon="3.75622">
        <ele>1068.387</ele>
        <time>2012-05-25T10:28:33Z</time>
      </trkpt>
      <trkpt lat="44.24343" lon="3.75612">
        <ele>1068.276</ele>
        <time>2012-05-25T10:28:42Z</time>
      </trkpt>
      <trkpt lat="44.24333" lon="3.75597">
        <ele>1067.496</ele>
        <time>2012-05-25T10:28:56Z</time>
      </trkpt>
      <trkpt lat="44.24334" lon="3.75591">
        <ele>1067.313</ele>
        <time>2012-05-25T10:29:26Z</time>
      </trkpt>
      <trkpt lat="44.24334" lon="3.75583">
        <ele>1066.996</ele>
        <time>2012-05-25T10:29:53Z</time>
      </trkpt>
      <trkpt lat="44.24336" lon="3.75573">
        <ele>1066.246</ele>
        <time>2012-05-25T10:30:01Z</time>
      </trkpt>
      <trkpt lat="44.24337" lon="3.75567">
        <ele>1066.072</ele>
        <time>2012-05-25T10:30:04Z</time>
      </trkpt>
      <trkpt lat="44.2434" lon="3.75548">
        <ele>1063.9</ele>
        <time>2012-05-25T10:30:21Z</time>
      </trkpt>
      <trkpt lat="44.24338" lon="3.75536">
        <ele>1062.838</ele>
        <time>2012-05-25T10:30:31Z</time>
      </trkpt>
      <trkpt lat="44.24337" lon="3.75531">
        <ele>1062.681</ele>
        <time>2012-05-25T10:30:34Z</time>
      </trkpt>
      <trkpt lat="44.24328" lon="3.75511">
        <ele>1060.741</ele>
        <time>2012-05-25T10:30:49Z</time>
      </trkpt>
      <trkpt lat="44.2432" lon="3.75502">
        <ele>1059.515</ele>
        <time>2012-05-25T10:31:00Z</time>
      </trkpt>
      <trkpt lat="44.24301" lon="3.755">
        <ele>1058.524</ele>
        <time>2012-05-25T10:31:16Z</time>
      </trkpt>
      <trkpt lat="44.24294" lon="3.75501">
        <ele>1057.619</ele>
        <time>2012-05-25T10:31:22Z</time>
      </trkpt>
      <trkpt lat="44.24289" lon="3.75501">
        <ele>1057.035</ele>
        <time>2012-05-25T10:31:26Z</time>
      </trkpt>
      <trkpt lat="44.24282" lon="3.75504">
        <ele>1056.734</ele>
        <time>2012-05-25T10:31:32Z</time>
      </trkpt>
      <trkpt lat="44.2425" lon="3.75506">
        <ele>1054.464</ele>
        <time>2012-05-25T10:31:54Z</time>
      </trkpt>
      <trkpt lat="44.24238" lon="3.75507">
        <ele>1053.663</ele>
        <time>2012-05-25T10:32:03Z</time>
      </trkpt>
      <trkpt lat="44.24232" lon="3.75505">
        <ele>1053.12</ele>
        <time>2012-05-25T10:32:08Z</time>
      </trkpt>
      <trkpt lat="44.24218" lon="3.75488">
        <ele>1052.213</ele>
        <time>2012-05-25T10:32:22Z</time>
      </trkpt>
      <trkpt lat="44.24222" lon="3.75456">
        <ele>1051.098</ele>
        <time>2012-05-25T10:32:39Z</time>
      </trkpt>
      <trkpt lat="44.24227" lon="3.75443">
        <ele>1050.873</ele>
        <time>2012-05-25T10:32:47Z</time>
      </trkpt>
      <trkpt lat="44.24243" lon="3.7542">
        <ele>1049.299</ele>
        <time>2012-05-25T10:33:04Z</time>
      </trkpt>
      <trkpt lat="44.24244" lon="3.75415">
        <ele>1049.384</ele>
        <time>2012-05-25T10:33:07Z</time>
      </trkpt>
      <trkpt lat="44.24257" lon="3.75401">
        <ele>1047.356</ele>
        <time>2012-05-25T10:33:20Z</time>
      </trkpt>
      <trkpt lat="44.24267" lon="3.75383">
        <ele>1046.534</ele>
        <time>2012-05-25T10:33:34Z</time>
      </trkpt>
      <trkpt lat="44.24274" lon="3.75354">
        <ele>1046.017</ele>
        <time>2012-05-25T10:33:51Z</time>
      </trkpt>
      <trkpt lat="44.24282" lon="3.75328">
        <ele>1044.673</ele>
        <time>2012-05-25T10:34:10Z</time>
      </trkpt>
      <trkpt lat="44.24284" lon="3.75324">
        <ele>1044.632</ele>
        <time>2012-05-25T10:34:12Z</time>
      </trkpt>
      <trkpt lat="44.24283" lon="3.75319">
        <ele>1044.665</ele>
        <time>2012-05-25T10:34:14Z</time>
      </trkpt>
      <trkpt lat="44.24289" lon="3.75303">
        <ele>1043.921</ele>
        <time>2012-05-25T10:34:23Z</time>
      </trkpt>
      <trkpt lat="44.24293" lon="3.75294">
        <ele>1044.173</ele>
        <time>2012-05-25T10:34:29Z</time>
      </trkpt>
      <trkpt lat="44.24296" lon="3.75289">
        <ele>1043.583</ele>
        <time>2012-05-25T10:34:33Z</time>
      </trkpt>
      <trkpt lat="44.24301" lon="3.75279">
        <ele>1042.624</ele>
        <time>2012-05-25T10:34:40Z</time>
      </trkpt>
      <trkpt lat="44.24312" lon="3.75249">
        <ele>1039.883</ele>
        <time>2012-05-25T10:34:59Z</time>
      </trkpt>
      <trkpt lat="44.24312" lon="3.75241">
        <ele>1038.358</ele>
        <time>2012-05-25T10:35:10Z</time>
      </trkpt>
      <trkpt lat="44.2431" lon="3.75243">
        <ele>1038.262</ele>
        <time>2012-05-25T10:35:12Z</time>
      </trkpt>
      <trkpt lat="44.24306" lon="3.75246">
        <ele>1035.456</ele>
        <time>2012-05-25T10:35:17Z</time>
      </trkpt>
      <trkpt lat="44.24303" lon="3.75245">
        <ele>1034.931</ele>
        <time>2012-05-25T10:35:20Z</time>
      </trkpt>
      <trkpt lat="44.24294" lon="3.75236">
        <ele>1031.526</ele>
        <time>2012-05-25T10:35:29Z</time>
      </trkpt>
      <trkpt lat="44.24292" lon="3.75233">
        <ele>1030.535</ele>
        <time>2012-05-25T10:35:31Z</time>
      </trkpt>
      <trkpt lat="44.24288" lon="3.75228">
        <ele>1027.898</ele>
        <time>2012-05-25T10:35:43Z</time>
      </trkpt>
      <trkpt lat="44.24276" lon="3.7523">
        <ele>1025.057</ele>
        <time>2012-05-25T10:35:52Z</time>
      </trkpt>
      <trkpt lat="44.24269" lon="3.7523">
        <ele>1021.751</ele>
        <time>2012-05-25T10:36:02Z</time>
      </trkpt>
      <trkpt lat="44.24262" lon="3.7522">
        <ele>1018.981</ele>
        <time>2012-05-25T10:36:14Z</time>
      </trkpt>
      <trkpt lat="44.24256" lon="3.75219">
        <ele>1018.167</ele>
        <time>2012-05-25T10:36:27Z</time>
      </trkpt>
      <trkpt lat="44.24249" lon="3.75229">
        <ele>1017.959</ele>
        <time>2012-05-25T10:36:39Z</time>
      </trkpt>
      <trkpt lat="44.2424" lon="3.75257">
        <ele>1016.792</ele>
        <time>2012-05-25T10:37:01Z</time>
      </trkpt>
      <trkpt lat="44.24234" lon="3.75266">
        <ele>1016.142</ele>
        <time>2012-05-25T10:37:09Z</time>
      </trkpt>
      <trkpt lat="44.24229" lon="3.75268">
        <ele>1015.911</ele>
        <time>2012-05-25T10:37:12Z</time>
      </trkpt>
      <trkpt lat="44.24225" lon="3.7527">
        <ele>1016.011</ele>
        <time>2012-05-25T10:37:17Z</time>
      </trkpt>
      <trkpt lat="44.24223" lon="3.75272">
        <ele>1015.824</ele>
        <time>2012-05-25T10:37:19Z</time>
      </trkpt>
      <trkpt lat="44.24212" lon="3.75288">
        <ele>1015.257</ele>
        <time>2012-05-25T10:37:33Z</time>
      </trkpt>
      <trkpt lat="44.242" lon="3.75309">
        <ele>1014.229</ele>
        <time>2012-05-25T10:37:53Z</time>
      </trkpt>
      <trkpt lat="44.24181" lon="3.75327">
        <ele>1012.674</ele>
        <time>2012-05-25T10:38:10Z</time>
      </trkpt>
      <trkpt lat="44.24171" lon="3.75335">
        <ele>1011.414</ele>
        <time>2012-05-25T10:38:21Z</time>
      </trkpt>
      <trkpt lat="44.24167" lon="3.75341">
        <ele>1010.576</ele>
        <time>2012-05-25T10:38:28Z</time>
      </trkpt>
      <trkpt lat="44.2416" lon="3.75353">
        <ele>1010.188</ele>
        <time>2012-05-25T10:38:38Z</time>
      </trkpt>
      <trkpt lat="44.24151" lon="3.75364">
        <ele>1009.599</ele>
        <time>2012-05-25T10:38:48Z</time>
      </trkpt>
      <trkpt lat="44.24145" lon="3.75371">
        <ele>1009.082</ele>
        <time>2012-05-25T10:38:54Z</time>
      </trkpt>
      <trkpt lat="44.24129" lon="3.75383">
        <ele>1008.618</ele>
        <time>2012-05-25T10:39:09Z</time>
      </trkpt>
      <trkpt lat="44.24122" lon="3.75386">
        <ele>1008.554</ele>
        <time>2012-05-25T10:39:30Z</time>
      </trkpt>
      <trkpt lat="44.24106" lon="3.75413">
        <ele>1007.686</ele>
        <time>2012-05-25T10:39:55Z</time>
      </trkpt>
      <trkpt lat="44.241" lon="3.75434">
        <ele>1006.443</ele>
        <time>2012-05-25T10:40:09Z</time>
      </trkpt>
      <trkpt lat="44.2409" lon="3.7546">
        <ele>1004.639</ele>
        <time>2012-05-25T10:40:25Z</time>
      </trkpt>
      <trkpt lat="44.24072" lon="3.75473">
        <ele>1004.065</ele>
        <time>2012-05-25T10:40:47Z</time>
      </trkpt>
      <trkpt lat="44.24064" lon="3.75481">
        <ele>1003.966</ele>
        <time>2012-05-25T10:40:56Z</time>
      </trkpt>
      <trkpt lat="44.24061" lon="3.75482">
        <ele>1004.27</ele>
        <time>2012-05-25T10:40:58Z</time>
      </trkpt>
      <trkpt lat="44.24045" lon="3.75499">
        <ele>1003.798</ele>
        <time>2012-05-25T10:41:12Z</time>
      </trkpt>
      <trkpt lat="44.24035" lon="3.75506">
        <ele>1003.69</ele>
        <time>2012-05-25T10:41:27Z</time>
      </trkpt>
      <trkpt lat="44.24021" lon="3.75509">
        <ele>1003.598</ele>
        <time>2012-05-25T10:41:44Z</time>
      </trkpt>
      <trkpt lat="44.23999" lon="3.75509">
        <ele>1003.366</ele>
        <time>2012-05-25T10:42:32Z</time>
      </trkpt>
      <trkpt lat="44.23977" lon="3.75514">
        <ele>1002.845</ele>
        <time>2012-05-25T10:42:50Z</time>
      </trkpt>
      <trkpt lat="44.23947" lon="3.75514">
        <ele>1001.816</ele>
        <time>2012-05-25T10:43:10Z</time>
      </trkpt>
      <trkpt lat="44.23938" lon="3.75516">
        <ele>1001.604</ele>
        <time>2012-05-25T10:43:17Z</time>
      </trkpt>
      <trkpt lat="44.23909" lon="3.75521">
        <ele>1001.211</ele>
        <time>2012-05-25T10:43:43Z</time>
      </trkpt>
      <trkpt lat="44.23887" lon="3.75527">
        <ele>1000.675</ele>
        <time>2012-05-25T10:44:04Z</time>
      </trkpt>
      <trkpt lat="44.23865" lon="3.7553">
        <ele>999.43</ele>
        <time>2012-05-25T10:44:22Z</time>
      </trkpt>
      <trkpt lat="44.23845" lon="3.75533">
        <ele>998.818</ele>
        <time>2012-05-25T10:44:38Z</time>
      </trkpt>
      <trkpt lat="44.23842" lon="3.75535">
        <ele>998.608</ele>
        <time>2012-05-25T10:44:40Z</time>
      </trkpt>
      <trkpt lat="44.23835" lon="3.75538">
        <ele>998.34</ele>
        <time>2012-05-25T10:44:46Z</time>
      </trkpt>
      <trkpt lat="44.23831" lon="3.75539">
        <ele>997.763</ele>
        <time>2012-05-25T10:44:50Z</time>
      </trkpt>
      <trkpt lat="44.2382" lon="3.75539">
        <ele>997.406</ele>
        <time>2012-05-25T10:44:59Z</time>
      </trkpt>
      <trkpt lat="44.23803" lon="3.75547">
        <ele>996.499</ele>
        <time>2012-05-25T10:45:14Z</time>
      </trkpt>
      <trkpt lat="44.23796" lon="3.75551">
        <ele>996.587</ele>
        <time>2012-05-25T10:45:21Z</time>
      </trkpt>
      <trkpt lat="44.2378" lon="3.75548">
        <ele>991.686</ele>
        <time>2012-05-25T10:49:44Z</time>
      </trkpt>
      <trkpt lat="44.23766" lon="3.75556">
        <ele>996.326</ele>
        <time>2012-05-25T12:04:29Z</time>
      </trkpt>
      <trkpt lat="44.23744" lon="3.75559">
        <ele>995.371</ele>
        <time>2012-05-25T12:05:03Z</time>
      </trkpt>
      <trkpt lat="44.23727" lon="3.75575">
        <ele>994.502</ele>
        <time>2012-05-25T12:05:21Z</time>
      </trkpt>
      <trkpt lat="44.23713" lon="3.75581">
        <ele>994.09</ele>
        <time>2012-05-25T12:05:35Z</time>
      </trkpt>
      <trkpt lat="44.23699" lon="3.75591">
        <ele>994.09</ele>
        <time>2012-05-25T12:05:47Z</time>
      </trkpt>
      <trkpt lat="44.23694" lon="3.75592">
        <ele>994.052</ele>
        <time>2012-05-25T12:05:50Z</time>
      </trkpt>
      <trkpt lat="44.23678" lon="3.75598">
        <ele>993.967</ele>
        <time>2012-05-25T12:06:05Z</time>
      </trkpt>
      <trkpt lat="44.23664" lon="3.75607">
        <ele>994.58</ele>
        <time>2012-05-25T12:06:19Z</time>
      </trkpt>
      <trkpt lat="44.23645" lon="3.75617">
        <ele>993.484</ele>
        <time>2012-05-25T12:06:39Z</time>
      </trkpt>
      <trkpt lat="44.23634" lon="3.75624">
        <ele>993.536</ele>
        <time>2012-05-25T12:06:48Z</time>
      </trkpt>
      <trkpt lat="44.23626" lon="3.75625">
        <ele>993.205</ele>
        <time>2012-05-25T12:06:55Z</time>
      </trkpt>
      <trkpt lat="44.23619" lon="3.75625">
        <ele>993.291</ele>
        <time>2012-05-25T12:07:00Z</time>
      </trkpt>
      <trkpt lat="44.23601" lon="3.75621">
        <ele>993.191</ele>
        <time>2012-05-25T12:07:16Z</time>
      </trkpt>
      <trkpt lat="44.23596" lon="3.7562">
        <ele>993.703</ele>
        <time>2012-05-25T12:07:20Z</time>
      </trkpt>
      <trkpt lat="44.23581" lon="3.75617">
        <ele>992.206</ele>
        <time>2012-05-25T12:07:34Z</time>
      </trkpt>
      <trkpt lat="44.23574" lon="3.75616">
        <ele>991.61</ele>
        <time>2012-05-25T12:07:40Z</time>
      </trkpt>
      <trkpt lat="44.23571" lon="3.75618">
        <ele>991.261</ele>
        <time>2012-05-25T12:07:42Z</time>
      </trkpt>
      <trkpt lat="44.23566" lon="3.75618">
        <ele>991.243</ele>
        <time>2012-05-25T12:07:46Z</time>
      </trkpt>
      <trkpt lat="44.23552" lon="3.75624">
        <ele>990.378</ele>
        <time>2012-05-25T12:07:56Z</time>
      </trkpt>
      <trkpt lat="44.23548" lon="3.75628">
        <ele>989.758</ele>
        <time>2012-05-25T12:08:00Z</time>
      </trkpt>
      <trkpt lat="44.23535" lon="3.75647">
        <ele>987.75</ele>
        <time>2012-05-25T12:08:15Z</time>
      </trkpt>
      <trkpt lat="44.23525" lon="3.75666">
        <ele>987.162</ele>
        <time>2012-05-25T12:08:29Z</time>
      </trkpt>
      <trkpt lat="44.23513" lon="3.75687">
        <ele>986.102</ele>
        <time>2012-05-25T12:08:45Z</time>
      </trkpt>
      <trkpt lat="44.2351" lon="3.75692">
        <ele>985.299</ele>
        <time>2012-05-25T12:08:49Z</time>
      </trkpt>
      <trkpt lat="44.23503" lon="3.75702">
        <ele>985.383</ele>
        <time>2012-05-25T12:08:58Z</time>
      </trkpt>
      <trkpt lat="44.23499" lon="3.75705">
        <ele>985.009</ele>
        <time>2012-05-25T12:09:03Z</time>
      </trkpt>
      <trkpt lat="44.23493" lon="3.75718">
        <ele>984.861</ele>
        <time>2012-05-25T12:09:13Z</time>
      </trkpt>
      <trkpt lat="44.2349" lon="3.75727">
        <ele>984.019</ele>
        <time>2012-05-25T12:09:19Z</time>
      </trkpt>
      <trkpt lat="44.23487" lon="3.75735">
        <ele>984.357</ele>
        <time>2012-05-25T12:09:23Z</time>
      </trkpt>
      <trkpt lat="44.23486" lon="3.75738">
        <ele>984.467</ele>
        <time>2012-05-25T12:09:25Z</time>
      </trkpt>
      <trkpt lat="44.23483" lon="3.75743">
        <ele>984.142</ele>
        <time>2012-05-25T12:09:29Z</time>
      </trkpt>
      <trkpt lat="44.2348" lon="3.75758">
        <ele>983.581</ele>
        <time>2012-05-25T12:09:37Z</time>
      </trkpt>
      <trkpt lat="44.23475" lon="3.75784">
        <ele>983.724</ele>
        <time>2012-05-25T12:09:52Z</time>
      </trkpt>
      <trkpt lat="44.2347" lon="3.75808">
        <ele>982.716</ele>
        <time>2012-05-25T12:10:06Z</time>
      </trkpt>
      <trkpt lat="44.23472" lon="3.75813">
        <ele>982.871</ele>
        <time>2012-05-25T12:10:09Z</time>
      </trkpt>
      <trkpt lat="44.23473" lon="3.75839">
        <ele>981.601</ele>
        <time>2012-05-25T12:10:24Z</time>
      </trkpt>
      <trkpt lat="44.23476" lon="3.75852">
        <ele>981.215</ele>
        <time>2012-05-25T12:10:31Z</time>
      </trkpt>
      <trkpt lat="44.23477" lon="3.75856">
        <ele>981.175</ele>
        <time>2012-05-25T12:10:33Z</time>
      </trkpt>
      <trkpt lat="44.2348" lon="3.75871">
        <ele>981.225</ele>
        <time>2012-05-25T12:10:45Z</time>
      </trkpt>
      <trkpt lat="44.23485" lon="3.75882">
        <ele>981.293</ele>
        <time>2012-05-25T12:11:22Z</time>
      </trkpt>
      <trkpt lat="44.2348" lon="3.75889">
        <ele>970.897</ele>
        <time>2012-05-25T12:11:51Z</time>
      </trkpt>
      <trkpt lat="44.23479" lon="3.75901">
        <ele>971.821</ele>
        <time>2012-05-25T12:11:57Z</time>
      </trkpt>
      <trkpt lat="44.23476" lon="3.75909">
        <ele>971.317</ele>
        <time>2012-05-25T12:12:01Z</time>
      </trkpt>
      <trkpt lat="44.23461" lon="3.75924">
        <ele>972.364</ele>
        <time>2012-05-25T12:12:17Z</time>
      </trkpt>
      <trkpt lat="44.23448" lon="3.75934">
        <ele>972.72</ele>
        <time>2012-05-25T12:12:31Z</time>
      </trkpt>
      <trkpt lat="44.23426" lon="3.75945">
        <ele>973.436</ele>
        <time>2012-05-25T12:12:53Z</time>
      </trkpt>
      <trkpt lat="44.23421" lon="3.75952">
        <ele>973.764</ele>
        <time>2012-05-25T12:13:10Z</time>
      </trkpt>
      <trkpt lat="44.23408" lon="3.75961">
        <ele>973.718</ele>
        <time>2012-05-25T12:13:53Z</time>
      </trkpt>
      <trkpt lat="44.23398" lon="3.76">
        <ele>973.106</ele>
        <time>2012-05-25T12:14:16Z</time>
      </trkpt>
      <trkpt lat="44.23399" lon="3.76017">
        <ele>973.115</ele>
        <time>2012-05-25T12:14:27Z</time>
      </trkpt>
      <trkpt lat="44.23395" lon="3.7603">
        <ele>973.229</ele>
        <time>2012-05-25T12:14:34Z</time>
      </trkpt>
      <trkpt lat="44.23395" lon="3.76063">
        <ele>972.724</ele>
        <time>2012-05-25T12:14:52Z</time>
      </trkpt>
      <trkpt lat="44.23395" lon="3.76066">
        <ele>972.798</ele>
        <time>2012-05-25T12:14:54Z</time>
      </trkpt>
      <trkpt lat="44.23392" lon="3.76075">
        <ele>973.086</ele>
        <time>2012-05-25T12:14:59Z</time>
      </trkpt>
      <trkpt lat="44.23392" lon="3.76091">
        <ele>973.417</ele>
        <time>2012-05-25T12:15:07Z</time>
      </trkpt>
      <trkpt lat="44.23391" lon="3.76124">
        <ele>973.51</ele>
        <time>2012-05-25T12:15:25Z</time>
      </trkpt>
      <trkpt lat="44.23391" lon="3.7613">
        <ele>973.285</ele>
        <time>2012-05-25T12:15:28Z</time>
      </trkpt>
      <trkpt lat="44.23395" lon="3.76165">
        <ele>972.825</ele>
        <time>2012-05-25T12:15:47Z</time>
      </trkpt>
      <trkpt lat="44.23399" lon="3.76198">
        <ele>970.943</ele>
        <time>2012-05-25T12:16:04Z</time>
      </trkpt>
      <trkpt lat="44.23405" lon="3.76228">
        <ele>967.826</ele>
        <time>2012-05-25T12:16:20Z</time>
      </trkpt>
      <trkpt lat="44.23405" lon="3.76232">
        <ele>967.872</ele>
        <time>2012-05-25T12:16:22Z</time>
      </trkpt>
      <trkpt lat="44.2341" lon="3.76256">
        <ele>965.338</ele>
        <time>2012-05-25T12:16:35Z</time>
      </trkpt>
      <trkpt lat="44.23411" lon="3.76266">
        <ele>964.422</ele>
        <time>2012-05-25T12:16:40Z</time>
      </trkpt>
      <trkpt lat="44.23411" lon="3.76269">
        <ele>964.258</ele>
        <time>2012-05-25T12:16:42Z</time>
      </trkpt>
      <trkpt lat="44.23414" lon="3.76283">
        <ele>962.959</ele>
        <time>2012-05-25T12:16:49Z</time>
      </trkpt>
      <trkpt lat="44.23417" lon="3.76297">
        <ele>962.179</ele>
        <time>2012-05-25T12:16:57Z</time>
      </trkpt>
      <trkpt lat="44.23418" lon="3.76305">
        <ele>961.673</ele>
        <time>2012-05-25T12:17:01Z</time>
      </trkpt>
      <trkpt lat="44.23419" lon="3.76311">
        <ele>961.362</ele>
        <time>2012-05-25T12:17:05Z</time>
      </trkpt>
      <trkpt lat="44.23422" lon="3.76323">
        <ele>960.523</ele>
        <time>2012-05-25T12:17:11Z</time>
      </trkpt>
      <trkpt lat="44.23426" lon="3.76332">
        <ele>959.355</ele>
        <time>2012-05-25T12:17:17Z</time>
      </trkpt>
      <trkpt lat="44.23432" lon="3.76338">
        <ele>958.249</ele>
        <time>2012-05-25T12:17:23Z</time>
      </trkpt>
      <trkpt lat="44.23436" lon="3.76343">
        <ele>957.311</ele>
        <time>2012-05-25T12:17:27Z</time>
      </trkpt>
      <trkpt lat="44.23436" lon="3.76346">
        <ele>957.35</ele>
        <time>2012-05-25T12:17:29Z</time>
      </trkpt>
      <trkpt lat="44.23442" lon="3.76356">
        <ele>956.809</ele>
        <time>2012-05-25T12:17:35Z</time>
      </trkpt>
      <trkpt lat="44.23444" lon="3.7636">
        <ele>956.344</ele>
        <time>2012-05-25T12:17:37Z</time>
      </trkpt>
      <trkpt lat="44.23449" lon="3.76369">
        <ele>955.765</ele>
        <time>2012-05-25T12:17:43Z</time>
      </trkpt>
      <trkpt lat="44.23451" lon="3.76372">
        <ele>955.609</ele>
        <time>2012-05-25T12:17:45Z</time>
      </trkpt>
      <trkpt lat="44.23458" lon="3.76381">
        <ele>954.478</ele>
        <time>2012-05-25T12:17:51Z</time>
      </trkpt>
      <trkpt lat="44.2346" lon="3.76389">
        <ele>954.529</ele>
        <time>2012-05-25T12:17:56Z</time>
      </trkpt>
      <trkpt lat="44.23461" lon="3.76395">
        <ele>954.215</ele>
        <time>2012-05-25T12:17:59Z</time>
      </trkpt>
      <trkpt lat="44.23469" lon="3.76419">
        <ele>953.078</ele>
        <time>2012-05-25T12:18:14Z</time>
      </trkpt>
      <trkpt lat="44.23473" lon="3.76435">
        <ele>952.412</ele>
        <time>2012-05-25T12:18:23Z</time>
      </trkpt>
      <trkpt lat="44.23476" lon="3.76442">
        <ele>952.06</ele>
        <time>2012-05-25T12:18:27Z</time>
      </trkpt>
      <trkpt lat="44.23483" lon="3.7646">
        <ele>951.379</ele>
        <time>2012-05-25T12:18:37Z</time>
      </trkpt>
      <trkpt lat="44.23492" lon="3.76498">
        <ele>950.464</ele>
        <time>2012-05-25T12:18:57Z</time>
      </trkpt>
      <trkpt lat="44.23496" lon="3.76513">
        <ele>950.294</ele>
        <time>2012-05-25T12:19:05Z</time>
      </trkpt>
      <trkpt lat="44.23496" lon="3.76538">
        <ele>949.577</ele>
        <time>2012-05-25T12:19:18Z</time>
      </trkpt>
      <trkpt lat="44.23494" lon="3.76545">
        <ele>949.511</ele>
        <time>2012-05-25T12:19:22Z</time>
      </trkpt>
      <trkpt lat="44.23502" lon="3.76571">
        <ele>948.367</ele>
        <time>2012-05-25T12:19:40Z</time>
      </trkpt>
      <trkpt lat="44.23517" lon="3.76583">
        <ele>946.62</ele>
        <time>2012-05-25T12:19:55Z</time>
      </trkpt>
      <trkpt lat="44.23534" lon="3.7659">
        <ele>945.926</ele>
        <time>2012-05-25T12:20:11Z</time>
      </trkpt>
      <trkpt lat="44.23538" lon="3.76589">
        <ele>945.164</ele>
        <time>2012-05-25T12:20:14Z</time>
      </trkpt>
      <trkpt lat="44.23546" lon="3.76593">
        <ele>944.782</ele>
        <time>2012-05-25T12:20:20Z</time>
      </trkpt>
      <trkpt lat="44.23542" lon="3.76605">
        <ele>943.943</ele>
        <time>2012-05-25T12:20:27Z</time>
      </trkpt>
      <trkpt lat="44.2353" lon="3.76605">
        <ele>942.702</ele>
        <time>2012-05-25T12:20:37Z</time>
      </trkpt>
      <trkpt lat="44.23521" lon="3.76604">
        <ele>941.795</ele>
        <time>2012-05-25T12:20:44Z</time>
      </trkpt>
      <trkpt lat="44.23516" lon="3.76607">
        <ele>940.806</ele>
        <time>2012-05-25T12:20:50Z</time>
      </trkpt>
      <trkpt lat="44.23526" lon="3.7662">
        <ele>939.36</ele>
        <time>2012-05-25T12:20:58Z</time>
      </trkpt>
      <trkpt lat="44.23533" lon="3.76624">
        <ele>937.736</ele>
        <time>2012-05-25T12:21:09Z</time>
      </trkpt>
      <trkpt lat="44.23553" lon="3.76633">
        <ele>935.877</ele>
        <time>2012-05-25T12:21:30Z</time>
      </trkpt>
      <trkpt lat="44.2356" lon="3.76641">
        <ele>935.689</ele>
        <time>2012-05-25T12:21:50Z</time>
      </trkpt>
      <trkpt lat="44.23566" lon="3.76644">
        <ele>935.769</ele>
        <time>2012-05-25T12:22:42Z</time>
      </trkpt>
      <trkpt lat="44.23567" lon="3.76649">
        <ele>935.55</ele>
        <time>2012-05-25T12:23:15Z</time>
      </trkpt>
      <trkpt lat="44.23577" lon="3.76656">
        <ele>934.622</ele>
        <time>2012-05-25T12:23:29Z</time>
      </trkpt>
      <trkpt lat="44.23586" lon="3.76654">
        <ele>934.306</ele>
        <time>2012-05-25T12:23:36Z</time>
      </trkpt>
      <trkpt lat="44.23603" lon="3.76657">
        <ele>933.652</ele>
        <time>2012-05-25T12:23:49Z</time>
      </trkpt>
      <trkpt lat="44.23605" lon="3.76658">
        <ele>933.42</ele>
        <time>2012-05-25T12:23:51Z</time>
      </trkpt>
      <trkpt lat="44.23612" lon="3.76669">
        <ele>932.993</ele>
        <time>2012-05-25T12:23:59Z</time>
      </trkpt>
      <trkpt lat="44.23617" lon="3.76689">
        <ele>933.139</ele>
        <time>2012-05-25T12:24:13Z</time>
      </trkpt>
      <trkpt lat="44.23618" lon="3.76692">
        <ele>933.068</ele>
        <time>2012-05-25T12:24:16Z</time>
      </trkpt>
      <trkpt lat="44.2362" lon="3.76698">
        <ele>932.954</ele>
        <time>2012-05-25T12:24:19Z</time>
      </trkpt>
      <trkpt lat="44.23621" lon="3.76705">
        <ele>932.76</ele>
        <time>2012-05-25T12:24:23Z</time>
      </trkpt>
      <trkpt lat="44.2362" lon="3.76712">
        <ele>932.302</ele>
        <time>2012-05-25T12:24:27Z</time>
      </trkpt>
      <trkpt lat="44.2362" lon="3.76721">
        <ele>932.058</ele>
        <time>2012-05-25T12:24:32Z</time>
      </trkpt>
      <trkpt lat="44.23613" lon="3.76755">
        <ele>930.525</ele>
        <time>2012-05-25T12:24:54Z</time>
      </trkpt>
      <trkpt lat="44.23613" lon="3.76759">
        <ele>930.338</ele>
        <time>2012-05-25T12:24:56Z</time>
      </trkpt>
      <trkpt lat="44.23613" lon="3.76767">
        <ele>929.386</ele>
        <time>2012-05-25T12:25:01Z</time>
      </trkpt>
      <trkpt lat="44.23612" lon="3.76789">
        <ele>928.353</ele>
        <time>2012-05-25T12:25:13Z</time>
      </trkpt>
      <trkpt lat="44.23605" lon="3.76816">
        <ele>926.987</ele>
        <time>2012-05-25T12:25:29Z</time>
      </trkpt>
      <trkpt lat="44.23599" lon="3.76844">
        <ele>926.044</ele>
        <time>2012-05-25T12:25:48Z</time>
      </trkpt>
      <trkpt lat="44.23596" lon="3.76864">
        <ele>925.613</ele>
        <time>2012-05-25T12:25:59Z</time>
      </trkpt>
      <trkpt lat="44.23597" lon="3.7687">
        <ele>925.007</ele>
        <time>2012-05-25T12:26:02Z</time>
      </trkpt>
      <trkpt lat="44.23596" lon="3.76902">
        <ele>924.2</ele>
        <time>2012-05-25T12:26:21Z</time>
      </trkpt>
      <trkpt lat="44.236" lon="3.76926">
        <ele>922.448</ele>
        <time>2012-05-25T12:26:37Z</time>
      </trkpt>
      <trkpt lat="44.23606" lon="3.76961">
        <ele>921.164</ele>
        <time>2012-05-25T12:26:58Z</time>
      </trkpt>
      <trkpt lat="44.2361" lon="3.76992">
        <ele>919.899</ele>
        <time>2012-05-25T12:27:19Z</time>
      </trkpt>
      <trkpt lat="44.23615" lon="3.7701">
        <ele>918.812</ele>
        <time>2012-05-25T12:27:30Z</time>
      </trkpt>
      <trkpt lat="44.23619" lon="3.77028">
        <ele>917.457</ele>
        <time>2012-05-25T12:27:40Z</time>
      </trkpt>
      <trkpt lat="44.23623" lon="3.7705">
        <ele>916.556</ele>
        <time>2012-05-25T12:27:52Z</time>
      </trkpt>
      <trkpt lat="44.23624" lon="3.77054">
        <ele>916.906</ele>
        <time>2012-05-25T12:27:55Z</time>
      </trkpt>
      <trkpt lat="44.23627" lon="3.77064">
        <ele>916.279</ele>
        <time>2012-05-25T12:28:02Z</time>
      </trkpt>
      <trkpt lat="44.23628" lon="3.77068">
        <ele>916.159</ele>
        <time>2012-05-25T12:28:04Z</time>
      </trkpt>
      <trkpt lat="44.23629" lon="3.77072">
        <ele>915.438</ele>
        <time>2012-05-25T12:28:07Z</time>
      </trkpt>
      <trkpt lat="44.2363" lon="3.7708">
        <ele>915.601</ele>
        <time>2012-05-25T12:28:12Z</time>
      </trkpt>
      <trkpt lat="44.23633" lon="3.77086">
        <ele>915.369</ele>
        <time>2012-05-25T12:28:15Z</time>
      </trkpt>
      <trkpt lat="44.23635" lon="3.77108">
        <ele>913.899</ele>
        <time>2012-05-25T12:28:29Z</time>
      </trkpt>
      <trkpt lat="44.23638" lon="3.77137">
        <ele>913.443</ele>
        <time>2012-05-25T12:28:46Z</time>
      </trkpt>
      <trkpt lat="44.23639" lon="3.77141">
        <ele>912.883</ele>
        <time>2012-05-25T12:28:49Z</time>
      </trkpt>
      <trkpt lat="44.23642" lon="3.77164">
        <ele>912.431</ele>
        <time>2012-05-25T12:29:02Z</time>
      </trkpt>
      <trkpt lat="44.23642" lon="3.77166">
        <ele>912.436</ele>
        <time>2012-05-25T12:29:03Z</time>
      </trkpt>
      <trkpt lat="44.23642" lon="3.77182">
        <ele>910.153</ele>
        <time>2012-05-25T12:29:15Z</time>
      </trkpt>
      <trkpt lat="44.23647" lon="3.77203">
        <ele>908.992</ele>
        <time>2012-05-25T12:29:28Z</time>
      </trkpt>
      <trkpt lat="44.23649" lon="3.77215">
        <ele>908.536</ele>
        <time>2012-05-25T12:29:35Z</time>
      </trkpt>
      <trkpt lat="44.23647" lon="3.77222">
        <ele>907.887</ele>
        <time>2012-05-25T12:29:39Z</time>
      </trkpt>
      <trkpt lat="44.23645" lon="3.77226">
        <ele>907.885</ele>
        <time>2012-05-25T12:29:42Z</time>
      </trkpt>
      <trkpt lat="44.23635" lon="3.77226">
        <ele>907.044</ele>
        <time>2012-05-25T12:29:47Z</time>
      </trkpt>
      <trkpt lat="44.23625" lon="3.7722">
        <ele>905.618</ele>
        <time>2012-05-25T12:29:56Z</time>
      </trkpt>
      <trkpt lat="44.23613" lon="3.77213">
        <ele>903.829</ele>
        <time>2012-05-25T12:30:11Z</time>
      </trkpt>
      <trkpt lat="44.23613" lon="3.77219">
        <ele>903.394</ele>
        <time>2012-05-25T12:30:15Z</time>
      </trkpt>
      <trkpt lat="44.23615" lon="3.77224">
        <ele>903.414</ele>
        <time>2012-05-25T12:30:19Z</time>
      </trkpt>
      <trkpt lat="44.23623" lon="3.77238">
        <ele>902.04</ele>
        <time>2012-05-25T12:30:30Z</time>
      </trkpt>
      <trkpt lat="44.23634" lon="3.77248">
        <ele>900.93</ele>
        <time>2012-05-25T12:30:43Z</time>
      </trkpt>
      <trkpt lat="44.23637" lon="3.77253">
        <ele>900.481</ele>
        <time>2012-05-25T12:30:46Z</time>
      </trkpt>
      <trkpt lat="44.23648" lon="3.77269">
        <ele>899.345</ele>
        <time>2012-05-25T12:30:57Z</time>
      </trkpt>
      <trkpt lat="44.23655" lon="3.77274">
        <ele>899.191</ele>
        <time>2012-05-25T12:31:04Z</time>
      </trkpt>
      <trkpt lat="44.23659" lon="3.77277">
        <ele>899.216</ele>
        <time>2012-05-25T12:31:09Z</time>
      </trkpt>
      <trkpt lat="44.23659" lon="3.77281">
        <ele>899.277</ele>
        <time>2012-05-25T12:31:11Z</time>
      </trkpt>
      <trkpt lat="44.2366" lon="3.77286">
        <ele>898.83</ele>
        <time>2012-05-25T12:31:14Z</time>
      </trkpt>
      <trkpt lat="44.23662" lon="3.77292">
        <ele>898.644</ele>
        <time>2012-05-25T12:31:17Z</time>
      </trkpt>
      <trkpt lat="44.2366" lon="3.77301">
        <ele>898.618</ele>
        <time>2012-05-25T12:31:23Z</time>
      </trkpt>
      <trkpt lat="44.23653" lon="3.77318">
        <ele>898.701</ele>
        <time>2012-05-25T12:31:36Z</time>
      </trkpt>
      <trkpt lat="44.23635" lon="3.77338">
        <ele>898.347</ele>
        <time>2012-05-25T12:31:55Z</time>
      </trkpt>
      <trkpt lat="44.23632" lon="3.7734">
        <ele>897.948</ele>
        <time>2012-05-25T12:31:58Z</time>
      </trkpt>
      <trkpt lat="44.23618" lon="3.77344">
        <ele>897.57</ele>
        <time>2012-05-25T12:32:09Z</time>
      </trkpt>
      <trkpt lat="44.23597" lon="3.77349">
        <ele>897.231</ele>
        <time>2012-05-25T12:32:23Z</time>
      </trkpt>
      <trkpt lat="44.23577" lon="3.77348">
        <ele>897.73</ele>
        <time>2012-05-25T12:32:40Z</time>
      </trkpt>
      <trkpt lat="44.23561" lon="3.77349">
        <ele>897.007</ele>
        <time>2012-05-25T12:32:53Z</time>
      </trkpt>
      <trkpt lat="44.23546" lon="3.77353">
        <ele>896.285</ele>
        <time>2012-05-25T12:33:07Z</time>
      </trkpt>
      <trkpt lat="44.23533" lon="3.77355">
        <ele>895.549</ele>
        <time>2012-05-25T12:33:17Z</time>
      </trkpt>
      <trkpt lat="44.23526" lon="3.77358">
        <ele>894.754</ele>
        <time>2012-05-25T12:33:23Z</time>
      </trkpt>
      <trkpt lat="44.23524" lon="3.7736">
        <ele>894.78</ele>
        <time>2012-05-25T12:33:26Z</time>
      </trkpt>
      <trkpt lat="44.23512" lon="3.77366">
        <ele>894.891</ele>
        <time>2012-05-25T12:33:37Z</time>
      </trkpt>
      <trkpt lat="44.235" lon="3.77386">
        <ele>893.69</ele>
        <time>2012-05-25T12:33:54Z</time>
      </trkpt>
      <trkpt lat="44.2349" lon="3.77403">
        <ele>893.474</ele>
        <time>2012-05-25T12:34:07Z</time>
      </trkpt>
      <trkpt lat="44.23476" lon="3.77426">
        <ele>893.372</ele>
        <time>2012-05-25T12:34:24Z</time>
      </trkpt>
      <trkpt lat="44.23473" lon="3.7743">
        <ele>893.584</ele>
        <time>2012-05-25T12:34:28Z</time>
      </trkpt>
      <trkpt lat="44.23467" lon="3.77435">
        <ele>893.115</ele>
        <time>2012-05-25T12:34:33Z</time>
      </trkpt>
      <trkpt lat="44.2346" lon="3.77439">
        <ele>893.205</ele>
        <time>2012-05-25T12:34:38Z</time>
      </trkpt>
      <trkpt lat="44.23453" lon="3.77445">
        <ele>893.612</ele>
        <time>2012-05-25T12:34:45Z</time>
      </trkpt>
      <trkpt lat="44.2345" lon="3.77453">
        <ele>893.731</ele>
        <time>2012-05-25T12:34:50Z</time>
      </trkpt>
      <trkpt lat="44.23448" lon="3.7746">
        <ele>893.652</ele>
        <time>2012-05-25T12:34:54Z</time>
      </trkpt>
      <trkpt lat="44.23445" lon="3.77468">
        <ele>893.582</ele>
        <time>2012-05-25T12:34:59Z</time>
      </trkpt>
      <trkpt lat="44.23443" lon="3.77472">
        <ele>893.716</ele>
        <time>2012-05-25T12:35:02Z</time>
      </trkpt>
      <trkpt lat="44.23428" lon="3.77481">
        <ele>893.478</ele>
        <time>2012-05-25T12:35:15Z</time>
      </trkpt>
      <trkpt lat="44.23427" lon="3.77483">
        <ele>893.471</ele>
        <time>2012-05-25T12:35:17Z</time>
      </trkpt>
      <trkpt lat="44.23419" lon="3.77498">
        <ele>893.149</ele>
        <time>2012-05-25T12:35:28Z</time>
      </trkpt>
      <trkpt lat="44.23417" lon="3.77501">
        <ele>893.518</ele>
        <time>2012-05-25T12:35:30Z</time>
      </trkpt>
      <trkpt lat="44.23412" lon="3.77511">
        <ele>893.303</ele>
        <time>2012-05-25T12:35:38Z</time>
      </trkpt>
      <trkpt lat="44.23401" lon="3.77528">
        <ele>893.083</ele>
        <time>2012-05-25T12:35:50Z</time>
      </trkpt>
      <trkpt lat="44.23399" lon="3.77536">
        <ele>892.836</ele>
        <time>2012-05-25T12:35:54Z</time>
      </trkpt>
      <trkpt lat="44.2339" lon="3.77547">
        <ele>892.602</ele>
        <time>2012-05-25T12:36:03Z</time>
      </trkpt>
      <trkpt lat="44.23387" lon="3.77549">
        <ele>892.951</ele>
        <time>2012-05-25T12:36:06Z</time>
      </trkpt>
      <trkpt lat="44.23378" lon="3.77557">
        <ele>892.781</ele>
        <time>2012-05-25T12:36:14Z</time>
      </trkpt>
      <trkpt lat="44.23373" lon="3.77561">
        <ele>892.654</ele>
        <time>2012-05-25T12:36:18Z</time>
      </trkpt>
      <trkpt lat="44.2337" lon="3.77564">
        <ele>892.479</ele>
        <time>2012-05-25T12:36:21Z</time>
      </trkpt>
      <trkpt lat="44.23348" lon="3.77583">
        <ele>892.483</ele>
        <time>2012-05-25T12:36:40Z</time>
      </trkpt>
      <trkpt lat="44.23331" lon="3.77602">
        <ele>892.731</ele>
        <time>2012-05-25T12:36:57Z</time>
      </trkpt>
      <trkpt lat="44.23324" lon="3.7761">
        <ele>892.837</ele>
        <time>2012-05-25T12:37:04Z</time>
      </trkpt>
      <trkpt lat="44.23318" lon="3.77617">
        <ele>892.715</ele>
        <time>2012-05-25T12:37:10Z</time>
      </trkpt>
      <trkpt lat="44.23315" lon="3.77622">
        <ele>893.15</ele>
        <time>2012-05-25T12:37:14Z</time>
      </trkpt>
      <trkpt lat="44.23305" lon="3.77634">
        <ele>893.881</ele>
        <time>2012-05-25T12:37:25Z</time>
      </trkpt>
      <trkpt lat="44.23301" lon="3.77637">
        <ele>894.091</ele>
        <time>2012-05-25T12:37:29Z</time>
      </trkpt>
      <trkpt lat="44.23298" lon="3.7765">
        <ele>894.469</ele>
        <time>2012-05-25T12:37:36Z</time>
      </trkpt>
      <trkpt lat="44.23285" lon="3.77661">
        <ele>895.402</ele>
        <time>2012-05-25T12:37:47Z</time>
      </trkpt>
      <trkpt lat="44.23279" lon="3.77668">
        <ele>895.943</ele>
        <time>2012-05-25T12:37:54Z</time>
      </trkpt>
      <trkpt lat="44.23273" lon="3.77673">
        <ele>896.215</ele>
        <time>2012-05-25T12:38:00Z</time>
      </trkpt>
      <trkpt lat="44.2326" lon="3.7769">
        <ele>896.766</ele>
        <time>2012-05-25T12:38:15Z</time>
      </trkpt>
      <trkpt lat="44.23257" lon="3.77692">
        <ele>897.375</ele>
        <time>2012-05-25T12:38:18Z</time>
      </trkpt>
      <trkpt lat="44.23254" lon="3.77693">
        <ele>897.682</ele>
        <time>2012-05-25T12:38:21Z</time>
      </trkpt>
      <trkpt lat="44.2325" lon="3.77698">
        <ele>897.993</ele>
        <time>2012-05-25T12:38:25Z</time>
      </trkpt>
      <trkpt lat="44.23246" lon="3.77702">
        <ele>898.513</ele>
        <time>2012-05-25T12:38:29Z</time>
      </trkpt>
      <trkpt lat="44.23235" lon="3.7772">
        <ele>899.057</ele>
        <time>2012-05-25T12:38:45Z</time>
      </trkpt>
      <trkpt lat="44.23226" lon="3.77735">
        <ele>899.452</ele>
        <time>2012-05-25T12:39:02Z</time>
      </trkpt>
      <trkpt lat="44.23222" lon="3.7775">
        <ele>898.883</ele>
        <time>2012-05-25T12:42:25Z</time>
      </trkpt>
      <trkpt lat="44.23217" lon="3.77758">
        <ele>897.863</ele>
        <time>2012-05-25T12:47:27Z</time>
      </trkpt>
      <trkpt lat="44.23216" lon="3.77774">
        <ele>896.369</ele>
        <time>2012-05-25T12:47:37Z</time>
      </trkpt>
      <trkpt lat="44.23217" lon="3.77792">
        <ele>894.707</ele>
        <time>2012-05-25T12:47:49Z</time>
      </trkpt>
      <trkpt lat="44.23219" lon="3.77803">
        <ele>893.383</ele>
        <time>2012-05-25T12:47:59Z</time>
      </trkpt>
      <trkpt lat="44.23216" lon="3.77809">
        <ele>892.641</ele>
        <time>2012-05-25T12:48:04Z</time>
      </trkpt>
      <trkpt lat="44.23215" lon="3.77812">
        <ele>892.417</ele>
        <time>2012-05-25T12:48:06Z</time>
      </trkpt>
      <trkpt lat="44.23214" lon="3.77821">
        <ele>891.845</ele>
        <time>2012-05-25T12:48:11Z</time>
      </trkpt>
      <trkpt lat="44.23212" lon="3.77825">
        <ele>890.915</ele>
        <time>2012-05-25T12:48:14Z</time>
      </trkpt>
      <trkpt lat="44.23193" lon="3.77852">
        <ele>889.057</ele>
        <time>2012-05-25T12:48:35Z</time>
      </trkpt>
      <trkpt lat="44.23184" lon="3.7788">
        <ele>886.918</ele>
        <time>2012-05-25T12:48:53Z</time>
      </trkpt>
      <trkpt lat="44.23169" lon="3.77904">
        <ele>885.265</ele>
        <time>2012-05-25T12:49:11Z</time>
      </trkpt>
      <trkpt lat="44.23153" lon="3.77931">
        <ele>884.517</ele>
        <time>2012-05-25T12:49:30Z</time>
      </trkpt>
      <trkpt lat="44.23142" lon="3.77957">
        <ele>884.955</ele>
        <time>2012-05-25T12:49:47Z</time>
      </trkpt>
      <trkpt lat="44.23139" lon="3.77961">
        <ele>884.751</ele>
        <time>2012-05-25T12:49:50Z</time>
      </trkpt>
      <trkpt lat="44.23124" lon="3.77998">
        <ele>884.446</ele>
        <time>2012-05-25T12:50:15Z</time>
      </trkpt>
      <trkpt lat="44.23114" lon="3.78029">
        <ele>884.008</ele>
        <time>2012-05-25T12:50:36Z</time>
      </trkpt>
      <trkpt lat="44.23111" lon="3.78041">
        <ele>883.945</ele>
        <time>2012-05-25T12:50:43Z</time>
      </trkpt>
      <trkpt lat="44.23109" lon="3.78051">
        <ele>883.694</ele>
        <time>2012-05-25T12:50:49Z</time>
      </trkpt>
      <trkpt lat="44.23107" lon="3.78056">
        <ele>883.61</ele>
        <time>2012-05-25T12:50:52Z</time>
      </trkpt>
      <trkpt lat="44.23105" lon="3.78062">
        <ele>883.833</ele>
        <time>2012-05-25T12:50:56Z</time>
      </trkpt>
      <trkpt lat="44.23106" lon="3.78075">
        <ele>883.396</ele>
        <time>2012-05-25T12:51:03Z</time>
      </trkpt>
      <trkpt lat="44.23105" lon="3.7808">
        <ele>883.356</ele>
        <time>2012-05-25T12:51:06Z</time>
      </trkpt>
      <trkpt lat="44.23102" lon="3.78105">
        <ele>883.395</ele>
        <time>2012-05-25T12:51:20Z</time>
      </trkpt>
      <trkpt lat="44.23102" lon="3.78114">
        <ele>883.626</ele>
        <time>2012-05-25T12:51:25Z</time>
      </trkpt>
      <trkpt lat="44.23102" lon="3.78121">
        <ele>883.036</ele>
        <time>2012-05-25T12:51:28Z</time>
      </trkpt>
      <trkpt lat="44.23101" lon="3.78127">
        <ele>883.109</ele>
        <time>2012-05-25T12:51:32Z</time>
      </trkpt>
      <trkpt lat="44.23091" lon="3.78161">
        <ele>882.262</ele>
        <time>2012-05-25T12:51:51Z</time>
      </trkpt>
      <trkpt lat="44.23077" lon="3.782">
        <ele>879.552</ele>
        <time>2012-05-25T12:52:16Z</time>
      </trkpt>
      <trkpt lat="44.23072" lon="3.7821">
        <ele>878.782</ele>
        <time>2012-05-25T12:52:22Z</time>
      </trkpt>
      <trkpt lat="44.2307" lon="3.78218">
        <ele>878.079</ele>
        <time>2012-05-25T12:52:27Z</time>
      </trkpt>
      <trkpt lat="44.23054" lon="3.78247">
        <ele>876.439</ele>
        <time>2012-05-25T12:52:48Z</time>
      </trkpt>
      <trkpt lat="44.23046" lon="3.78266">
        <ele>875.749</ele>
        <time>2012-05-25T12:53:00Z</time>
      </trkpt>
      <trkpt lat="44.23035" lon="3.78293">
        <ele>874.005</ele>
        <time>2012-05-25T12:53:17Z</time>
      </trkpt>
      <trkpt lat="44.23032" lon="3.78298">
        <ele>874.032</ele>
        <time>2012-05-25T12:53:20Z</time>
      </trkpt>
      <trkpt lat="44.2303" lon="3.78304">
        <ele>873.575</ele>
        <time>2012-05-25T12:53:24Z</time>
      </trkpt>
      <trkpt lat="44.23022" lon="3.78333">
        <ele>871.902</ele>
        <time>2012-05-25T12:53:40Z</time>
      </trkpt>
      <trkpt lat="44.23022" lon="3.78336">
        <ele>871.503</ele>
        <time>2012-05-25T12:53:42Z</time>
      </trkpt>
      <trkpt lat="44.23015" lon="3.78347">
        <ele>870.778</ele>
        <time>2012-05-25T12:53:50Z</time>
      </trkpt>
      <trkpt lat="44.23007" lon="3.78369">
        <ele>869.91</ele>
        <time>2012-05-25T12:54:03Z</time>
      </trkpt>
      <trkpt lat="44.22996" lon="3.78387">
        <ele>868.305</ele>
        <time>2012-05-25T12:54:16Z</time>
      </trkpt>
      <trkpt lat="44.22994" lon="3.78393">
        <ele>867.922</ele>
        <time>2012-05-25T12:54:20Z</time>
      </trkpt>
      <trkpt lat="44.22971" lon="3.78418">
        <ele>866.22</ele>
        <time>2012-05-25T12:54:41Z</time>
      </trkpt>
      <trkpt lat="44.2295" lon="3.78434">
        <ele>863.089</ele>
        <time>2012-05-25T12:54:59Z</time>
      </trkpt>
      <trkpt lat="44.22939" lon="3.78446">
        <ele>861.499</ele>
        <time>2012-05-25T12:55:10Z</time>
      </trkpt>
      <trkpt lat="44.22915" lon="3.78451">
        <ele>859.88</ele>
        <time>2012-05-25T12:55:28Z</time>
      </trkpt>
      <trkpt lat="44.22903" lon="3.7845">
        <ele>859.51</ele>
        <time>2012-05-25T12:55:37Z</time>
      </trkpt>
      <trkpt lat="44.22886" lon="3.78456">
        <ele>858.027</ele>
        <time>2012-05-25T12:55:50Z</time>
      </trkpt>
      <trkpt lat="44.22868" lon="3.78469">
        <ele>855.674</ele>
        <time>2012-05-25T12:56:06Z</time>
      </trkpt>
      <trkpt lat="44.22866" lon="3.78473">
        <ele>855.401</ele>
        <time>2012-05-25T12:56:09Z</time>
      </trkpt>
      <trkpt lat="44.22838" lon="3.78495">
        <ele>853.522</ele>
        <time>2012-05-25T12:56:33Z</time>
      </trkpt>
      <trkpt lat="44.2283" lon="3.78503">
        <ele>852.505</ele>
        <time>2012-05-25T12:56:42Z</time>
      </trkpt>
      <trkpt lat="44.22814" lon="3.78513">
        <ele>851.312</ele>
        <time>2012-05-25T12:56:55Z</time>
      </trkpt>
      <trkpt lat="44.22796" lon="3.78531">
        <ele>849.395</ele>
        <time>2012-05-25T12:57:11Z</time>
      </trkpt>
      <trkpt lat="44.22772" lon="3.78548">
        <ele>847.943</ele>
        <time>2012-05-25T12:57:31Z</time>
      </trkpt>
      <trkpt lat="44.22768" lon="3.7855">
        <ele>847.6</ele>
        <time>2012-05-25T12:57:35Z</time>
      </trkpt>
      <trkpt lat="44.2275" lon="3.78561">
        <ele>846.642</ele>
        <time>2012-05-25T12:57:49Z</time>
      </trkpt>
      <trkpt lat="44.2273" lon="3.78581">
        <ele>845.984</ele>
        <time>2012-05-25T12:58:07Z</time>
      </trkpt>
      <trkpt lat="44.22714" lon="3.78594">
        <ele>846.28</ele>
        <time>2012-05-25T12:58:22Z</time>
      </trkpt>
      <trkpt lat="44.22706" lon="3.78606">
        <ele>846.327</ele>
        <time>2012-05-25T12:58:32Z</time>
      </trkpt>
      <trkpt lat="44.22698" lon="3.78614">
        <ele>846.042</ele>
        <time>2012-05-25T12:58:39Z</time>
      </trkpt>
      <trkpt lat="44.22679" lon="3.78642">
        <ele>845.76</ele>
        <time>2012-05-25T12:59:01Z</time>
      </trkpt>
      <trkpt lat="44.22657" lon="3.78662">
        <ele>844.13</ele>
        <time>2012-05-25T12:59:22Z</time>
      </trkpt>
      <trkpt lat="44.22643" lon="3.78686">
        <ele>842.312</ele>
        <time>2012-05-25T12:59:40Z</time>
      </trkpt>
      <trkpt lat="44.22631" lon="3.78719">
        <ele>841.202</ele>
        <time>2012-05-25T13:00:00Z</time>
      </trkpt>
      <trkpt lat="44.22626" lon="3.78745">
        <ele>840.425</ele>
        <time>2012-05-25T13:00:16Z</time>
      </trkpt>
      <trkpt lat="44.22625" lon="3.7875">
        <ele>840.115</ele>
        <time>2012-05-25T13:00:41Z</time>
      </trkpt>
      <trkpt lat="44.22623" lon="3.78757">
        <ele>840.208</ele>
        <time>2012-05-25T13:00:50Z</time>
      </trkpt>
      <trkpt lat="44.22621" lon="3.78762">
        <ele>840.026</ele>
        <time>2012-05-25T13:00:54Z</time>
      </trkpt>
      <trkpt lat="44.22612" lon="3.78794">
        <ele>839.121</ele>
        <time>2012-05-25T13:01:16Z</time>
      </trkpt>
      <trkpt lat="44.22601" lon="3.78827">
        <ele>838.158</ele>
        <time>2012-05-25T13:01:38Z</time>
      </trkpt>
      <trkpt lat="44.22592" lon="3.7887">
        <ele>836.928</ele>
        <time>2012-05-25T13:02:03Z</time>
      </trkpt>
      <trkpt lat="44.2258" lon="3.78915">
        <ele>835.623</ele>
        <time>2012-05-25T13:02:30Z</time>
      </trkpt>
      <trkpt lat="44.22573" lon="3.78953">
        <ele>834.732</ele>
        <time>2012-05-25T13:02:53Z</time>
      </trkpt>
      <trkpt lat="44.22572" lon="3.78963">
        <ele>835.011</ele>
        <time>2012-05-25T13:02:59Z</time>
      </trkpt>
      <trkpt lat="44.22561" lon="3.78984">
        <ele>834.993</ele>
        <time>2012-05-25T13:03:14Z</time>
      </trkpt>
      <trkpt lat="44.22547" lon="3.78982">
        <ele>833.28</ele>
        <time>2012-05-25T13:03:53Z</time>
      </trkpt>
      <trkpt lat="44.22546" lon="3.78984">
        <ele>833.125</ele>
        <time>2012-05-25T13:05:34Z</time>
      </trkpt>
      <trkpt lat="44.22536" lon="3.78989">
        <ele>832.315</ele>
        <time>2012-05-25T13:07:07Z</time>
      </trkpt>
      <trkpt lat="44.22534" lon="3.78993">
        <ele>831.646</ele>
        <time>2012-05-25T13:07:10Z</time>
      </trkpt>
      <trkpt lat="44.2252" lon="3.79012">
        <ele>830.385</ele>
        <time>2012-05-25T13:07:24Z</time>
      </trkpt>
      <trkpt lat="44.22516" lon="3.79024">
        <ele>830.253</ele>
        <time>2012-05-25T13:07:32Z</time>
      </trkpt>
      <trkpt lat="44.22506" lon="3.79056">
        <ele>829.349</ele>
        <time>2012-05-25T13:07:51Z</time>
      </trkpt>
      <trkpt lat="44.22494" lon="3.79094">
        <ele>828.008</ele>
        <time>2012-05-25T13:08:13Z</time>
      </trkpt>
      <trkpt lat="44.22482" lon="3.79134">
        <ele>825.361</ele>
        <time>2012-05-25T13:08:35Z</time>
      </trkpt>
      <trkpt lat="44.22466" lon="3.79171">
        <ele>822.578</ele>
        <time>2012-05-25T13:08:59Z</time>
      </trkpt>
      <trkpt lat="44.22452" lon="3.7919">
        <ele>821.034</ele>
        <time>2012-05-25T13:09:13Z</time>
      </trkpt>
      <trkpt lat="44.22441" lon="3.79204">
        <ele>819.803</ele>
        <time>2012-05-25T13:09:25Z</time>
      </trkpt>
      <trkpt lat="44.22429" lon="3.79231">
        <ele>818.984</ele>
        <time>2012-05-25T13:09:42Z</time>
      </trkpt>
      <trkpt lat="44.22418" lon="3.79261">
        <ele>817.023</ele>
        <time>2012-05-25T13:10:01Z</time>
      </trkpt>
      <trkpt lat="44.22405" lon="3.79284">
        <ele>815.995</ele>
        <time>2012-05-25T13:10:17Z</time>
      </trkpt>
      <trkpt lat="44.22398" lon="3.79314">
        <ele>814.958</ele>
        <time>2012-05-25T13:10:36Z</time>
      </trkpt>
      <trkpt lat="44.22397" lon="3.79322">
        <ele>814.641</ele>
        <time>2012-05-25T13:10:45Z</time>
      </trkpt>
      <trkpt lat="44.22398" lon="3.79326">
        <ele>814.85</ele>
        <time>2012-05-25T13:10:47Z</time>
      </trkpt>
      <trkpt lat="44.22401" lon="3.79336">
        <ele>814.328</ele>
        <time>2012-05-25T13:11:07Z</time>
      </trkpt>
      <trkpt lat="44.22407" lon="3.79352">
        <ele>813.408</ele>
        <time>2012-05-25T13:11:19Z</time>
      </trkpt>
      <trkpt lat="44.22419" lon="3.79375">
        <ele>812.668</ele>
        <time>2012-05-25T13:11:36Z</time>
      </trkpt>
      <trkpt lat="44.2242" lon="3.79381">
        <ele>812.654</ele>
        <time>2012-05-25T13:11:38Z</time>
      </trkpt>
      <trkpt lat="44.22428" lon="3.79397">
        <ele>812.222</ele>
        <time>2012-05-25T13:11:49Z</time>
      </trkpt>
      <trkpt lat="44.22429" lon="3.79402">
        <ele>811.731</ele>
        <time>2012-05-25T13:11:52Z</time>
      </trkpt>
      <trkpt lat="44.22432" lon="3.79406">
        <ele>811.843</ele>
        <time>2012-05-25T13:11:55Z</time>
      </trkpt>
      <trkpt lat="44.22443" lon="3.79423">
        <ele>811.544</ele>
        <time>2012-05-25T13:12:06Z</time>
      </trkpt>
      <trkpt lat="44.22455" lon="3.79441">
        <ele>810.712</ele>
        <time>2012-05-25T13:12:20Z</time>
      </trkpt>
      <trkpt lat="44.22466" lon="3.79465">
        <ele>810.468</ele>
        <time>2012-05-25T13:12:34Z</time>
      </trkpt>
      <trkpt lat="44.22466" lon="3.79474">
        <ele>809.765</ele>
        <time>2012-05-25T13:12:38Z</time>
      </trkpt>
      <trkpt lat="44.22468" lon="3.79505">
        <ele>809.194</ele>
        <time>2012-05-25T13:12:54Z</time>
      </trkpt>
      <trkpt lat="44.2247" lon="3.79522">
        <ele>808.699</ele>
        <time>2012-05-25T13:13:04Z</time>
      </trkpt>
      <trkpt lat="44.22474" lon="3.79542">
        <ele>808.334</ele>
        <time>2012-05-25T13:13:15Z</time>
      </trkpt>
      <trkpt lat="44.22477" lon="3.79562">
        <ele>807.777</ele>
        <time>2012-05-25T13:13:26Z</time>
      </trkpt>
      <trkpt lat="44.22476" lon="3.79568">
        <ele>807.461</ele>
        <time>2012-05-25T13:13:30Z</time>
      </trkpt>
      <trkpt lat="44.22477" lon="3.79575">
        <ele>806.265</ele>
        <time>2012-05-25T13:13:34Z</time>
      </trkpt>
      <trkpt lat="44.22477" lon="3.796">
        <ele>804.911</ele>
        <time>2012-05-25T13:13:47Z</time>
      </trkpt>
      <trkpt lat="44.22475" lon="3.79621">
        <ele>803.529</ele>
        <time>2012-05-25T13:13:58Z</time>
      </trkpt>
      <trkpt lat="44.22476" lon="3.79637">
        <ele>803.67</ele>
        <time>2012-05-25T13:14:06Z</time>
      </trkpt>
      <trkpt lat="44.22475" lon="3.79649">
        <ele>802.423</ele>
        <time>2012-05-25T13:14:16Z</time>
      </trkpt>
      <trkpt lat="44.22473" lon="3.79661">
        <ele>802.226</ele>
        <time>2012-05-25T13:14:31Z</time>
      </trkpt>
      <trkpt lat="44.22472" lon="3.79664">
        <ele>801.715</ele>
        <time>2012-05-25T13:14:40Z</time>
      </trkpt>
      <trkpt lat="44.22462" lon="3.79683">
        <ele>801.744</ele>
        <time>2012-05-25T13:14:53Z</time>
      </trkpt>
      <trkpt lat="44.2246" lon="3.79684">
        <ele>801.636</ele>
        <time>2012-05-25T13:15:00Z</time>
      </trkpt>
      <trkpt lat="44.22466" lon="3.79678">
        <ele>800.807</ele>
        <time>2012-05-25T13:15:08Z</time>
      </trkpt>
      <trkpt lat="44.22468" lon="3.79676">
        <ele>800.805</ele>
        <time>2012-05-25T13:15:11Z</time>
      </trkpt>
      <trkpt lat="44.22478" lon="3.79673">
        <ele>800.38</ele>
        <time>2012-05-25T13:15:19Z</time>
      </trkpt>
      <trkpt lat="44.2248" lon="3.79672">
        <ele>800.269</ele>
        <time>2012-05-25T13:15:21Z</time>
      </trkpt>
      <trkpt lat="44.22481" lon="3.79668">
        <ele>800.139</ele>
        <time>2012-05-25T13:15:23Z</time>
      </trkpt>
      <trkpt lat="44.22483" lon="3.79665">
        <ele>800.2</ele>
        <time>2012-05-25T13:15:26Z</time>
      </trkpt>
      <trkpt lat="44.2249" lon="3.79642">
        <ele>798.817</ele>
        <time>2012-05-25T13:15:40Z</time>
      </trkpt>
      <trkpt lat="44.22493" lon="3.79634">
        <ele>798.346</ele>
        <time>2012-05-25T13:15:45Z</time>
      </trkpt>
      <trkpt lat="44.22499" lon="3.79616">
        <ele>797.845</ele>
        <time>2012-05-25T13:16:02Z</time>
      </trkpt>
      <trkpt lat="44.225" lon="3.79611">
        <ele>797.605</ele>
        <time>2012-05-25T13:16:23Z</time>
      </trkpt>
      <trkpt lat="44.22506" lon="3.79609">
        <ele>795.667</ele>
        <time>2012-05-25T13:16:30Z</time>
      </trkpt>
      <trkpt lat="44.22513" lon="3.79615">
        <ele>793.582</ele>
        <time>2012-05-25T13:16:38Z</time>
      </trkpt>
      <trkpt lat="44.22516" lon="3.79636">
        <ele>791.759</ele>
        <time>2012-05-25T13:16:54Z</time>
      </trkpt>
      <trkpt lat="44.22519" lon="3.79645">
        <ele>791.48</ele>
        <time>2012-05-25T13:17:01Z</time>
      </trkpt>
      <trkpt lat="44.22526" lon="3.79671">
        <ele>790.133</ele>
        <time>2012-05-25T13:17:18Z</time>
      </trkpt>
      <trkpt lat="44.22527" lon="3.79686">
        <ele>789.08</ele>
        <time>2012-05-25T13:17:28Z</time>
      </trkpt>
      <trkpt lat="44.2253" lon="3.79696">
        <ele>788.172</ele>
        <time>2012-05-25T13:17:36Z</time>
      </trkpt>
      <trkpt lat="44.22533" lon="3.79722">
        <ele>785.984</ele>
        <time>2012-05-25T13:17:53Z</time>
      </trkpt>
      <trkpt lat="44.22535" lon="3.79733">
        <ele>785.167</ele>
        <time>2012-05-25T13:17:59Z</time>
      </trkpt>
      <trkpt lat="44.22536" lon="3.79743">
        <ele>784.206</ele>
        <time>2012-05-25T13:18:07Z</time>
      </trkpt>
      <trkpt lat="44.22539" lon="3.79761">
        <ele>783.138</ele>
        <time>2012-05-25T13:18:20Z</time>
      </trkpt>
      <trkpt lat="44.2254" lon="3.79783">
        <ele>781.533</ele>
        <time>2012-05-25T13:18:35Z</time>
      </trkpt>
      <trkpt lat="44.22541" lon="3.79807">
        <ele>779.794</ele>
        <time>2012-05-25T13:18:50Z</time>
      </trkpt>
      <trkpt lat="44.22538" lon="3.79828">
        <ele>778.478</ele>
        <time>2012-05-25T13:19:05Z</time>
      </trkpt>
      <trkpt lat="44.22533" lon="3.79856">
        <ele>777.135</ele>
        <time>2012-05-25T13:19:21Z</time>
      </trkpt>
      <trkpt lat="44.22525" lon="3.79872">
        <ele>775.519</ele>
        <time>2012-05-25T13:19:35Z</time>
      </trkpt>
      <trkpt lat="44.2251" lon="3.79879">
        <ele>773.568</ele>
        <time>2012-05-25T13:19:50Z</time>
      </trkpt>
      <trkpt lat="44.22497" lon="3.79883">
        <ele>771.903</ele>
        <time>2012-05-25T13:20:01Z</time>
      </trkpt>
      <trkpt lat="44.22496" lon="3.79893">
        <ele>770.998</ele>
        <time>2012-05-25T13:20:08Z</time>
      </trkpt>
      <trkpt lat="44.22498" lon="3.79914">
        <ele>767.979</ele>
        <time>2012-05-25T13:20:21Z</time>
      </trkpt>
      <trkpt lat="44.22506" lon="3.79933">
        <ele>765.258</ele>
        <time>2012-05-25T13:20:39Z</time>
      </trkpt>
      <trkpt lat="44.22516" lon="3.79953">
        <ele>763.175</ele>
        <time>2012-05-25T13:20:56Z</time>
      </trkpt>
      <trkpt lat="44.22522" lon="3.79973">
        <ele>760.232</ele>
        <time>2012-05-25T13:21:11Z</time>
      </trkpt>
      <trkpt lat="44.22518" lon="3.79996">
        <ele>758.89</ele>
        <time>2012-05-25T13:21:25Z</time>
      </trkpt>
      <trkpt lat="44.22515" lon="3.80002">
        <ele>758.027</ele>
        <time>2012-05-25T13:21:29Z</time>
      </trkpt>
      <trkpt lat="44.22507" lon="3.80016">
        <ele>756.259</ele>
        <time>2012-05-25T13:21:42Z</time>
      </trkpt>
      <trkpt lat="44.22486" lon="3.80024">
        <ele>755.314</ele>
        <time>2012-05-25T13:22:01Z</time>
      </trkpt>
      <trkpt lat="44.22484" lon="3.80027">
        <ele>754.562</ele>
        <time>2012-05-25T13:22:20Z</time>
      </trkpt>
      <trkpt lat="44.22473" lon="3.8004">
        <ele>753.411</ele>
        <time>2012-05-25T13:22:37Z</time>
      </trkpt>
      <trkpt lat="44.22455" lon="3.80032">
        <ele>753.101</ele>
        <time>2012-05-25T13:22:56Z</time>
      </trkpt>
      <trkpt lat="44.22444" lon="3.80021">
        <ele>753.315</ele>
        <time>2012-05-25T13:23:10Z</time>
      </trkpt>
      <trkpt lat="44.22427" lon="3.80012">
        <ele>752.589</ele>
        <time>2012-05-25T13:23:30Z</time>
      </trkpt>
      <trkpt lat="44.22423" lon="3.80007">
        <ele>752.887</ele>
        <time>2012-05-25T13:24:03Z</time>
      </trkpt>
      <trkpt lat="44.22419" lon="3.80009">
        <ele>752.627</ele>
        <time>2012-05-25T13:24:07Z</time>
      </trkpt>
      <trkpt lat="44.22409" lon="3.80004">
        <ele>752.588</ele>
        <time>2012-05-25T13:24:21Z</time>
      </trkpt>
      <trkpt lat="44.22405" lon="3.80003">
        <ele>751.757</ele>
        <time>2012-05-25T13:26:06Z</time>
      </trkpt>
      <trkpt lat="44.22406" lon="3.8001">
        <ele>751.497</ele>
        <time>2012-05-25T13:26:11Z</time>
      </trkpt>
      <trkpt lat="44.22405" lon="3.80022">
        <ele>750.587</ele>
        <time>2012-05-25T13:26:24Z</time>
      </trkpt>
      <trkpt lat="44.22406" lon="3.80029">
        <ele>749.769</ele>
        <time>2012-05-25T13:26:57Z</time>
      </trkpt>
      <trkpt lat="44.2241" lon="3.80036">
        <ele>749.576</ele>
        <time>2012-05-25T13:27:02Z</time>
      </trkpt>
      <trkpt lat="44.2241" lon="3.80041">
        <ele>749.212</ele>
        <time>2012-05-25T13:27:06Z</time>
      </trkpt>
      <trkpt lat="44.22411" lon="3.8007">
        <ele>745.731</ele>
        <time>2012-05-25T13:27:25Z</time>
      </trkpt>
      <trkpt lat="44.2241" lon="3.80075">
        <ele>745.499</ele>
        <time>2012-05-25T13:27:29Z</time>
      </trkpt>
      <trkpt lat="44.22404" lon="3.80092">
        <ele>742.376</ele>
        <time>2012-05-25T13:29:40Z</time>
      </trkpt>
      <trkpt lat="44.22404" lon="3.80094">
        <ele>741.875</ele>
        <time>2012-05-25T13:29:53Z</time>
      </trkpt>
      <trkpt lat="44.22405" lon="3.80087">
        <ele>741.832</ele>
        <time>2012-05-25T13:32:11Z</time>
      </trkpt>
      <trkpt lat="44.22398" lon="3.80102">
        <ele>739.46</ele>
        <time>2012-05-25T13:32:30Z</time>
      </trkpt>
      <trkpt lat="44.22392" lon="3.80097">
        <ele>742.081</ele>
        <time>2012-05-25T13:33:46Z</time>
      </trkpt>
    </trkseg>
  </trk>
</gpx>